Observation data for Boys Ranch on 08/13/2019      Previous  Date  Next       Current Mesonet Observations  Soil Data  Daily Summary Page  Observations in Plain Language
KBY1 130500Z 17000KT 22/21 A3002 RMK A01 T02150205  RH  094%=      5-min Rain = 0
KBY1 130501Z 00000KT 21/21 A3002 RMK A01 T02140205  RH  094%=      5-min Rain = 0
KBY1 130502Z 00000KT 21/21 A3003 RMK A01 T02140206  RH  095%=      5-min Rain = 0
KBY1 130503Z 19001KT 21/21 A3003 RMK A01 T02140206  RH  095%=      5-min Rain = 0
KBY1 130504Z 20001KT 21/21 A3003 RMK A01 T02130206  RH  096%=      5-min Rain = 0
KBY1 130505Z 23001KT 21/21 A3003 RMK A01 T02130205  RH  096%=      5-min Rain = 0
KBY1 130506Z 00000KT 21/21 A3003 RMK A01 T02120206  RH  096%=      5-min Rain = 0
KBY1 130507Z 31000KT 21/21 A3003 RMK A01 T02120206  RH  097%=      5-min Rain = 0
KBY1 130508Z 34001KT 21/21 A3003 RMK A01 T02120208  RH  097%=      5-min Rain = 0
KBY1 130509Z 35002KT 21/21 A3003 RMK A01 T02130210  RH  098%=      5-min Rain = 0
KBY1 130510Z 36003KT 21/21 A3003 RMK A01 T02130209  RH  098%=      5-min Rain = 0
KBY1 130511Z 36003KT 21/21 A3003 RMK A01 T02130208  RH  097%=      5-min Rain = 0
KBY1 130512Z 36003KT 21/21 A3004 RMK A01 T02130207  RH  096%=      5-min Rain = 0
KBY1 130513Z 35003KT 21/21 A3004 RMK A01 T02130206  RH  096%=      5-min Rain = 0
KBY1 130514Z 35004KT 21/21 A3004 RMK A01 T02140205  RH  095%=      5-min Rain = 0
KBY1 130515Z 35004KT 21/20 A3004 RMK A01 T02140204  RH  093%=      5-min Rain = 0
KBY1 130516Z 36004KT 22/20 A3004 RMK A01 T02150203  RH  093%=      5-min Rain = 0
KBY1 130517Z 00004KT 22/20 A3004 RMK A01 T02150202  RH  092%=      5-min Rain = 0
KBY1 130518Z 01003KT 22/20 A3004 RMK A01 T02160203  RH  092%=      5-min Rain = 0
KBY1 130519Z 02003KT 22/20 A3004 RMK A01 T02160202  RH  092%=      5-min Rain = 0
KBY1 130520Z 02004KT 22/20 A3004 RMK A01 T02160202  RH  092%=      5-min Rain = 0
KBY1 130521Z 03004KT 22/20 A3004 RMK A01 T02160202  RH  091%=      5-min Rain = 0
KBY1 130522Z 04004KT 22/20 A3004 RMK A01 T02160200  RH  091%=      5-min Rain = 0
KBY1 130523Z 04005KT 22/20 A3004 RMK A01 T02170200  RH  090%=      5-min Rain = 0
KBY1 130524Z 04005KT 22/20 A3004 RMK A01 T02170199  RH  090%=      5-min Rain = 0
KBY1 130525Z 03004KT 22/20 A3004 RMK A01 T02170199  RH  090%=      5-min Rain = 0
KBY1 130526Z 03004KT 22/20 A3004 RMK A01 T02170199  RH  090%=      5-min Rain = 0
KBY1 130527Z 03006KT 22/20 A3004 RMK A01 T02160200  RH  090%=      5-min Rain = 0
KBY1 130528Z 02005KT 22/20 A3004 RMK A01 T02160199  RH  090%=      5-min Rain = 0
KBY1 130529Z 02005KT 22/20 A3004 RMK A01 T02150200  RH  091%=      5-min Rain = 0
KBY1 130530Z 02006KT 22/20 A3004 RMK A01 T02150199  RH  090%=      5-min Rain = 0
KBY1 130531Z 02004KT 22/20 A3004 RMK A01 T02150198  RH  090%=      5-min Rain = 0
KBY1 130532Z 02005KT 22/20 A3004 RMK A01 T02150198  RH  090%=      5-min Rain = 0
KBY1 130533Z 02005KT 22/20 A3004 RMK A01 T02160197  RH  089%=      5-min Rain = 0
KBY1 130534Z 03005KT 22/20 A3004 RMK A01 T02160197  RH  089%=      5-min Rain = 0
KBY1 130535Z 03005KT 22/20 A3004 RMK A01 T02170197  RH  089%=      5-min Rain = 0
KBY1 130536Z 04005KT 22/20 A3004 RMK A01 T02170198  RH  089%=      5-min Rain = 0
KBY1 130537Z 04005KT 22/20 A3004 RMK A01 T02170199  RH  089%=      5-min Rain = 0
KBY1 130538Z 04006KT 22/20 A3004 RMK A01 T02160198  RH  089%=      5-min Rain = 0
KBY1 130539Z 04006KT 22/20 A3004 RMK A01 T02160198  RH  089%=      5-min Rain = 0
KBY1 130540Z 04005KT 22/20 A3004 RMK A01 T02160198  RH  090%=      5-min Rain = 0
KBY1 130541Z 04005KT 22/20 A3004 RMK A01 T02160198  RH  089%=      5-min Rain = 0
KBY1 130542Z 04005KT 22/20 A3004 RMK A01 T02160197  RH  089%=      5-min Rain = 0
KBY1 130543Z 04005KT 22/20 A3004 RMK A01 T02160197  RH  089%=      5-min Rain = 0
KBY1 130544Z 04005KT 22/20 A3004 RMK A01 T02160197  RH  089%=      5-min Rain = 0
KBY1 130545Z 04004KT 22/20 A3004 RMK A01 T02170196  RH  088%=      5-min Rain = 0
KBY1 130546Z 05004KT 22/20 A3004 RMK A01 T02170197  RH  088%=      5-min Rain = 0
KBY1 130547Z 05004KT 22/20 A3004 RMK A01 T02170196  RH  088%=      5-min Rain = 0
KBY1 130548Z 05004KT 22/20 A3004 RMK A01 T02170196  RH  088%=      5-min Rain = 0
KBY1 130549Z 06003KT 22/20 A3004 RMK A01 T02170196  RH  087%=      5-min Rain = 0
KBY1 130550Z 06004KT 22/20 A3004 RMK A01 T02170196  RH  088%=      5-min Rain = 0
KBY1 130551Z 06003KT 22/20 A3004 RMK A01 T02170196  RH  088%=      5-min Rain = 0
KBY1 130552Z 05004KT 22/20 A3004 RMK A01 T02170197  RH  088%=      5-min Rain = 0
KBY1 130553Z 04004KT 22/20 A3004 RMK A01 T02170196  RH  088%=      5-min Rain = 0
KBY1 130554Z 04006KT 22/19 A3004 RMK A01 T02170194  RH  087%=      5-min Rain = 0
KBY1 130555Z 04005KT 22/19 A3004 RMK A01 T02180194  RH  086%=      5-min Rain = 0
KBY1 130556Z 05005KT 22/19 A3004 RMK A01 T02180194  RH  086%=      5-min Rain = 0
KBY1 130557Z 05004KT 22/19 A3004 RMK A01 T02180193  RH  086%=      5-min Rain = 0
KBY1 130558Z 06004KT 22/19 A3004 RMK A01 T02190194  RH  086%=      5-min Rain = 0
KBY1 130559Z 06004KT 22/20 A3004 RMK A01 T02190195  RH  087%=      5-min Rain = 0
KBY1 130600Z 07004KT 22/20 A3004 RMK A01 T02180196  RH  087%=      5-min Rain = 0
KBY1 130601Z 06004KT 22/20 A3004 RMK A01 T02170196  RH  088%=      5-min Rain = 0
KBY1 130602Z 05004KT 22/20 A3004 RMK A01 T02170196  RH  088%=      5-min Rain = 0
KBY1 130603Z 05003KT 22/20 A3004 RMK A01 T02170196  RH  088%=      5-min Rain = 0
KBY1 130604Z 04004KT 22/20 A3004 RMK A01 T02170196  RH  088%=      5-min Rain = 0
KBY1 130605Z 04004KT 22/20 A3005 RMK A01 T02170196  RH  088%=      5-min Rain = 0
KBY1 130606Z 04004KT 22/20 A3005 RMK A01 T02170196  RH  088%=      5-min Rain = 0
KBY1 130607Z 04004KT 22/20 A3005 RMK A01 T02170195  RH  087%=      5-min Rain = 0
KBY1 130608Z 04003KT 22/20 A3005 RMK A01 T02170195  RH  087%=      5-min Rain = 0
KBY1 130609Z 03003KT 22/20 A3005 RMK A01 T02170195  RH  087%=      5-min Rain = 0
KBY1 130610Z 03003KT 22/19 A3005 RMK A01 T02170194  RH  087%=      5-min Rain = 0
KBY1 130611Z 02003KT 22/20 A3005 RMK A01 T02170195  RH  087%=      5-min Rain = 0
KBY1 130612Z 02004KT 22/19 A3005 RMK A01 T02170194  RH  087%=      5-min Rain = 0
KBY1 130613Z 03004KT 22/19 A3005 RMK A01 T02170194  RH  086%=      5-min Rain = 0
KBY1 130614Z 03003KT 22/19 A3005 RMK A01 T02180194  RH  086%=      5-min Rain = 0
KBY1 130615Z 03003KT 22/19 A3005 RMK A01 T02180194  RH  086%=      5-min Rain = 0
KBY1 130616Z 03003KT 22/19 A3005 RMK A01 T02180194  RH  086%=      5-min Rain = 0
KBY1 130617Z 03003KT 22/20 A3005 RMK A01 T02180195  RH  086%=      5-min Rain = 0
KBY1 130618Z 04003KT 22/20 A3005 RMK A01 T02180195  RH  087%=      5-min Rain = 0
KBY1 130619Z 05003KT 22/20 A3005 RMK A01 T02180196  RH  087%=      5-min Rain = 0
KBY1 130620Z 05003KT 22/20 A3005 RMK A01 T02180195  RH  087%=      5-min Rain = 0
KBY1 130621Z 05003KT 22/20 A3005 RMK A01 T02170195  RH  087%=      5-min Rain = 0
KBY1 130622Z 05002KT 22/20 A3005 RMK A01 T02170196  RH  088%=      5-min Rain = 0
KBY1 130623Z 04002KT 22/20 A3005 RMK A01 T02170196  RH  088%=      5-min Rain = 0
KBY1 130624Z 04002KT 22/20 A3005 RMK A01 T02160196  RH  088%=      5-min Rain = 0
KBY1 130625Z 03002KT 22/20 A3005 RMK A01 T02160197  RH  089%=      5-min Rain = 0
KBY1 130626Z 03003KT 22/20 A3005 RMK A01 T02160195  RH  088%=      5-min Rain = 0
KBY1 130627Z 02003KT 22/20 A3005 RMK A01 T02150195  RH  088%=      5-min Rain = 0
KBY1 130628Z 01003KT 22/20 A3005 RMK A01 T02150196  RH  088%=      5-min Rain = 0
KBY1 130629Z 01003KT 22/20 A3005 RMK A01 T02150195  RH  088%=      5-min Rain = 0
KBY1 130630Z 01003KT 22/20 A3005 RMK A01 T02150195  RH  088%=      5-min Rain = 0
KBY1 130631Z 01004KT 22/20 A3005 RMK A01 T02150195  RH  088%=      5-min Rain = 0
KBY1 130632Z 01004KT 22/20 A3005 RMK A01 T02150195  RH  088%=      5-min Rain = 0
KBY1 130633Z 02004KT 22/20 A3005 RMK A01 T02150195  RH  089%=      5-min Rain = 0
KBY1 130634Z 01004KT 22/20 A3005 RMK A01 T02150195  RH  088%=      5-min Rain = 0
KBY1 130635Z 02004KT 22/20 A3005 RMK A01 T02150195  RH  088%=      5-min Rain = 0
KBY1 130636Z 02004KT 22/20 A3005 RMK A01 T02150195  RH  089%=      5-min Rain = 0
KBY1 130637Z 02004KT 21/20 A3005 RMK A01 T02140195  RH  089%=      5-min Rain = 0
KBY1 130638Z 03004KT 22/20 A3005 RMK A01 T02150196  RH  089%=      5-min Rain = 0
KBY1 130639Z 02004KT 22/20 A3005 RMK A01 T02150195  RH  089%=      5-min Rain = 0
KBY1 130640Z 03004KT 21/19 A3005 RMK A01 T02140194  RH  088%=      5-min Rain = 0
KBY1 130641Z 02004KT 21/19 A3005 RMK A01 T02140193  RH  088%=      5-min Rain = 0
KBY1 130642Z 02004KT 22/19 A3005 RMK A01 T02150194  RH  088%=      5-min Rain = 0
KBY1 130643Z 03004KT 22/19 A3005 RMK A01 T02150193  RH  088%=      5-min Rain = 0
KBY1 130644Z 02003KT 22/19 A3005 RMK A01 T02150194  RH  088%=      5-min Rain = 0
KBY1 130645Z 02003KT 22/20 A3005 RMK A01 T02150195  RH  088%=      5-min Rain = 0
KBY1 130646Z 01003KT 21/19 A3005 RMK A01 T02140194  RH  088%=      5-min Rain = 0
KBY1 130647Z 02004KT 21/20 A3005 RMK A01 T02140195  RH  088%=      5-min Rain = 0
KBY1 130648Z 01003KT 21/19 A3005 RMK A01 T02140194  RH  088%=      5-min Rain = 0
KBY1 130649Z 01003KT 21/19 A3005 RMK A01 T02140194  RH  089%=      5-min Rain = 0
KBY1 130650Z 01004KT 21/20 A3005 RMK A01 T02140195  RH  089%=      5-min Rain = 0
KBY1 130651Z 02004KT 21/20 A3005 RMK A01 T02130195  RH  089%=      5-min Rain = 0
KBY1 130652Z 02005KT 21/19 A3005 RMK A01 T02130194  RH  089%=      5-min Rain = 0
KBY1 130653Z 02004KT 21/19 A3005 RMK A01 T02130194  RH  089%=      5-min Rain = 0
KBY1 130654Z 02004KT 21/19 A3005 RMK A01 T02130194  RH  089%=      5-min Rain = 0
KBY1 130655Z 03004KT 21/19 A3005 RMK A01 T02120194  RH  089%=      5-min Rain = 0
KBY1 130656Z 03005KT 21/19 A3005 RMK A01 T02120194  RH  089%=      5-min Rain = 0
KBY1 130657Z 03005KT 21/19 A3005 RMK A01 T02120194  RH  089%=      5-min Rain = 0
KBY1 130658Z 03004KT 21/20 A3005 RMK A01 T02120195  RH  090%=      5-min Rain = 0
KBY1 130659Z 03006KT 21/19 A3005 RMK A01 T02120194  RH  090%=      5-min Rain = 0
KBY1 130700Z 03005KT 21/19 A3005 RMK A01 T02110194  RH  090%=      5-min Rain = 0
KBY1 130701Z 04005KT 21/19 A3005 RMK A01 T02110194  RH  090%=      5-min Rain = 0
KBY1 130702Z 03004KT 21/20 A3005 RMK A01 T02110195  RH  090%=      5-min Rain = 0
KBY1 130703Z 03004KT 21/19 A3005 RMK A01 T02110194  RH  090%=      5-min Rain = 0
KBY1 130704Z 05003KT 21/20 A3005 RMK A01 T02110195  RH  091%=      5-min Rain = 0
KBY1 130705Z 05002KT 21/20 A3005 RMK A01 T02100195  RH  091%=      5-min Rain = 0
KBY1 130706Z 08001KT 21/20 A3005 RMK A01 T02100195  RH  091%=      5-min Rain = 0
KBY1 130707Z 10001KT 21/20 A3005 RMK A01 T02090196  RH  092%=      5-min Rain = 0
KBY1 130708Z 12001KT 21/20 A3005 RMK A01 T02090196  RH  092%=      5-min Rain = 0
KBY1 130709Z 13001KT 21/20 A3005 RMK A01 T02080196  RH  092%=      5-min Rain = 0
KBY1 130710Z 14000KT 21/20 A3005 RMK A01 T02080196  RH  093%=      5-min Rain = 0
KBY1 130711Z 00000KT 21/20 A3005 RMK A01 T02080197  RH  093%=      5-min Rain = 0
KBY1 130712Z 00000KT 21/20 A3005 RMK A01 T02070198  RH  094%=      5-min Rain = 0
KBY1 130713Z 00000KT 21/20 A3005 RMK A01 T02070197  RH  094%=      5-min Rain = 0
KBY1 130714Z 00000KT 21/20 A3005 RMK A01 T02070198  RH  095%=      5-min Rain = 0
KBY1 130715Z 00000KT 21/20 A3005 RMK A01 T02070199  RH  095%=      5-min Rain = 0
KBY1 130716Z 00000KT 21/20 A3005 RMK A01 T02060199  RH  095%=      5-min Rain = 0
KBY1 130717Z 00000KT 21/20 A3005 RMK A01 T02060198  RH  095%=      5-min Rain = 0
KBY1 130718Z 00000KT 21/20 A3005 RMK A01 T02060198  RH  095%=      5-min Rain = 0
KBY1 130719Z 26000KT 21/20 A3005 RMK A01 T02060198  RH  095%=      5-min Rain = 0
KBY1 130720Z 26001KT 21/20 A3005 RMK A01 T02060199  RH  095%=      5-min Rain = 0
KBY1 130721Z 25001KT 21/20 A3005 RMK A01 T02060198  RH  095%=      5-min Rain = 0
KBY1 130722Z 24001KT 21/20 A3005 RMK A01 T02060197  RH  095%=      5-min Rain = 0
KBY1 130723Z 25001KT 21/20 A3005 RMK A01 T02060197  RH  094%=      5-min Rain = 0
KBY1 130724Z 25000KT 21/20 A3006 RMK A01 T02070198  RH  095%=      5-min Rain = 0
KBY1 130725Z 27000KT 21/20 A3006 RMK A01 T02070200  RH  095%=      5-min Rain = 0
KBY1 130726Z 28001KT 21/20 A3006 RMK A01 T02070200  RH  096%=      5-min Rain = 0
KBY1 130727Z 30001KT 21/20 A3006 RMK A01 T02070200  RH  096%=      5-min Rain = 0
KBY1 130728Z 33001KT 21/20 A3006 RMK A01 T02070199  RH  095%=      5-min Rain = 0
KBY1 130729Z 33001KT 21/20 A3006 RMK A01 T02070198  RH  095%=      5-min Rain = 0
KBY1 130730Z 33002KT 21/20 A3006 RMK A01 T02060197  RH  095%=      5-min Rain = 0
KBY1 130731Z 33002KT 21/20 A3006 RMK A01 T02060197  RH  095%=      5-min Rain = 0
KBY1 130732Z 34002KT 21/20 A3006 RMK A01 T02060198  RH  095%=      5-min Rain = 0
KBY1 130733Z 35002KT 21/20 A3006 RMK A01 T02050197  RH  095%=      5-min Rain = 0
KBY1 130734Z 36002KT 21/20 A3006 RMK A01 T02050198  RH  095%=      5-min Rain = 0
KBY1 130735Z 36002KT 21/20 A3006 RMK A01 T02050198  RH  096%=      5-min Rain = 0
KBY1 130736Z 35003KT 21/20 A3006 RMK A01 T02050199  RH  096%=      5-min Rain = 0
KBY1 130737Z 35003KT 21/20 A3006 RMK A01 T02050198  RH  096%=      5-min Rain = 0
KBY1 130738Z 35002KT 21/20 A3006 RMK A01 T02050197  RH  095%=      5-min Rain = 0
KBY1 130739Z 35003KT 21/20 A3006 RMK A01 T02050196  RH  095%=      5-min Rain = 0
KBY1 130740Z 35002KT 21/20 A3006 RMK A01 T02060197  RH  095%=      5-min Rain = 0
KBY1 130741Z 33001KT 21/20 A3006 RMK A01 T02060196  RH  094%=      5-min Rain = 0
KBY1 130742Z 29002KT 21/20 A3006 RMK A01 T02060197  RH  094%=      5-min Rain = 0
KBY1 130743Z 29002KT 21/20 A3006 RMK A01 T02060197  RH  094%=      5-min Rain = 0
KBY1 130744Z 29001KT 21/20 A3006 RMK A01 T02060197  RH  095%=      5-min Rain = 0
KBY1 130745Z 29001KT 21/20 A3006 RMK A01 T02060198  RH  095%=      5-min Rain = 0
KBY1 130746Z 28002KT 21/20 A3006 RMK A01 T02060197  RH  095%=      5-min Rain = 0
KBY1 130747Z 31001KT 21/20 A3006 RMK A01 T02050198  RH  095%=      5-min Rain = 0
KBY1 130748Z 31003KT 21/20 A3006 RMK A01 T02050198  RH  095%=      5-min Rain = 0
KBY1 130749Z 33003KT 21/20 A3006 RMK A01 T02050197  RH  095%=      5-min Rain = 0
KBY1 130750Z 33002KT 21/20 A3006 RMK A01 T02050197  RH  095%=      5-min Rain = 0
KBY1 130751Z 35001KT 21/20 A3006 RMK A01 T02050198  RH  096%=      5-min Rain = 0
KBY1 130752Z 35002KT 21/20 A3006 RMK A01 T02050198  RH  096%=      5-min Rain = 0
KBY1 130753Z 36002KT 21/20 A3006 RMK A01 T02050197  RH  095%=      5-min Rain = 0
KBY1 130754Z 36002KT 20/20 A3006 RMK A01 T02040196  RH  095%=      5-min Rain = 0
KBY1 130755Z 00002KT 21/20 A3006 RMK A01 T02050197  RH  095%=      5-min Rain = 0
KBY1 130756Z 36002KT 20/20 A3006 RMK A01 T02040196  RH  095%=      5-min Rain = 0
KBY1 130757Z 35001KT 21/20 A3006 RMK A01 T02050197  RH  095%=      5-min Rain = 0
KBY1 130758Z 35001KT 20/20 A3006 RMK A01 T02040197  RH  095%=      5-min Rain = 0
KBY1 130759Z 33000KT 20/20 A3006 RMK A01 T02040197  RH  095%=      5-min Rain = 0
KBY1 130800Z 32001KT 21/20 A3006 RMK A01 T02050197  RH  095%=      5-min Rain = 0
KBY1 130801Z 30001KT 20/20 A3006 RMK A01 T02040196  RH  095%=      5-min Rain = 0
KBY1 130802Z 31001KT 20/20 A3006 RMK A01 T02040197  RH  095%=      5-min Rain = 0
KBY1 130803Z 32001KT 20/20 A3006 RMK A01 T02040197  RH  095%=      5-min Rain = 0
KBY1 130804Z 34001KT 20/20 A3006 RMK A01 T02040196  RH  095%=      5-min Rain = 0
KBY1 130805Z 30000KT 20/20 A3006 RMK A01 T02040196  RH  095%=      5-min Rain = 0
KBY1 130806Z 00000KT 21/20 A3006 RMK A01 T02050197  RH  095%=      5-min Rain = 0
KBY1 130807Z 00000KT 20/20 A3006 RMK A01 T02040197  RH  095%=      5-min Rain = 0
KBY1 130808Z 00000KT 20/20 A3006 RMK A01 T02040197  RH  096%=      5-min Rain = 0
KBY1 130809Z 00000KT 20/20 A3006 RMK A01 T02040197  RH  096%=      5-min Rain = 0
KBY1 130810Z 00000KT 20/20 A3006 RMK A01 T02040198  RH  096%=      5-min Rain = 0
KBY1 130811Z 00000KT 20/20 A3006 RMK A01 T02040198  RH  096%=      5-min Rain = 0
KBY1 130812Z 00000KT 20/20 A3006 RMK A01 T02040198  RH  096%=      5-min Rain = 0
KBY1 130813Z 00000KT 20/20 A3006 RMK A01 T02040198  RH  097%=      5-min Rain = 0
KBY1 130814Z 00000KT 20/20 A3006 RMK A01 T02040199  RH  097%=      5-min Rain = 0
KBY1 130815Z 00000KT 20/20 A3006 RMK A01 T02040199  RH  097%=      5-min Rain = 0
KBY1 130816Z 04000KT 20/20 A3006 RMK A01 T02030199  RH  097%=      5-min Rain = 0
KBY1 130817Z 05001KT 20/20 A3006 RMK A01 T02030199  RH  097%=      5-min Rain = 0
KBY1 130818Z 00000KT 20/20 A3006 RMK A01 T02030199  RH  097%=      5-min Rain = 0
KBY1 130819Z 00000KT 20/20 A3006 RMK A01 T02030198  RH  097%=      5-min Rain = 0
KBY1 130820Z 00000KT 20/20 A3006 RMK A01 T02030198  RH  097%=      5-min Rain = 0
KBY1 130821Z 00000KT 20/20 A3006 RMK A01 T02020198  RH  097%=      5-min Rain = 0
KBY1 130822Z 00000KT 20/20 A3006 RMK A01 T02020197  RH  097%=      5-min Rain = 0
KBY1 130823Z 00000KT 20/20 A3006 RMK A01 T02020198  RH  097%=      5-min Rain = 0
KBY1 130824Z 00000KT 20/20 A3006 RMK A01 T02020198  RH  097%=      5-min Rain = 0
KBY1 130825Z 01000KT 20/20 A3006 RMK A01 T02010197  RH  097%=      5-min Rain = 0
KBY1 130826Z 02001KT 20/20 A3006 RMK A01 T02010197  RH  097%=      5-min Rain = 0
KBY1 130827Z 03001KT 20/20 A3006 RMK A01 T02020197  RH  097%=      5-min Rain = 0
KBY1 130828Z 02001KT 20/20 A3006 RMK A01 T02020197  RH  097%=      5-min Rain = 0
KBY1 130829Z 02000KT 20/20 A3006 RMK A01 T02020197  RH  097%=      5-min Rain = 0
KBY1 130830Z 02000KT 20/20 A3006 RMK A01 T02010197  RH  097%=      5-min Rain = 0
KBY1 130831Z 00000KT 20/20 A3006 RMK A01 T02020197  RH  097%=      5-min Rain = 0
KBY1 130832Z 00000KT 20/20 A3006 RMK A01 T02020196  RH  097%=      5-min Rain = 0
KBY1 130833Z 35000KT 20/20 A3006 RMK A01 T02020196  RH  096%=      5-min Rain = 0
KBY1 130834Z 00001KT 20/20 A3006 RMK A01 T02020195  RH  096%=      5-min Rain = 0
KBY1 130835Z 00001KT 20/20 A3006 RMK A01 T02020195  RH  095%=      5-min Rain = 0
KBY1 130836Z 01002KT 20/19 A3006 RMK A01 T02020194  RH  095%=      5-min Rain = 0
KBY1 130837Z 00002KT 20/19 A3006 RMK A01 T02020194  RH  095%=      5-min Rain = 0
KBY1 130838Z 00003KT 20/19 A3006 RMK A01 T02020194  RH  095%=      5-min Rain = 0
KBY1 130839Z 36003KT 20/19 A3006 RMK A01 T02020193  RH  095%=      5-min Rain = 0
KBY1 130840Z 36003KT 20/19 A3006 RMK A01 T02020193  RH  095%=      5-min Rain = 0
KBY1 130841Z 00003KT 20/19 A3006 RMK A01 T02020194  RH  095%=      5-min Rain = 0
KBY1 130842Z 01003KT 20/19 A3006 RMK A01 T02020194  RH  095%=      5-min Rain = 0
KBY1 130843Z 02004KT 20/19 A3006 RMK A01 T02020194  RH  095%=      5-min Rain = 0
KBY1 130844Z 03004KT 20/19 A3006 RMK A01 T02020193  RH  095%=      5-min Rain = 0
KBY1 130845Z 04003KT 20/19 A3006 RMK A01 T02020193  RH  095%=      5-min Rain = 0
KBY1 130846Z 04002KT 20/19 A3006 RMK A01 T02020193  RH  094%=      5-min Rain = 0
KBY1 130847Z 04002KT 20/19 A3006 RMK A01 T02010193  RH  095%=      5-min Rain = 0
KBY1 130848Z 05002KT 20/19 A3006 RMK A01 T02020193  RH  095%=      5-min Rain = 0
KBY1 130849Z 05002KT 20/19 A3006 RMK A01 T02020193  RH  095%=      5-min Rain = 0
KBY1 130850Z 04002KT 20/19 A3006 RMK A01 T02020193  RH  095%=      5-min Rain = 0
KBY1 130851Z 05002KT 20/19 A3006 RMK A01 T02010193  RH  095%=      5-min Rain = 0
KBY1 130852Z 04002KT 20/19 A3006 RMK A01 T02020193  RH  095%=      5-min Rain = 0
KBY1 130853Z 03002KT 20/19 A3006 RMK A01 T02020193  RH  095%=      5-min Rain = 0
KBY1 130854Z 02002KT 20/19 A3006 RMK A01 T02010193  RH  095%=      5-min Rain = 0
KBY1 130855Z 02003KT 20/19 A3006 RMK A01 T02020193  RH  095%=      5-min Rain = 0
KBY1 130856Z 02003KT 20/19 A3006 RMK A01 T02010192  RH  094%=      5-min Rain = 0
KBY1 130857Z 01003KT 20/19 A3006 RMK A01 T02010192  RH  094%=      5-min Rain = 0
KBY1 130858Z 02002KT 20/19 A3006 RMK A01 T02010192  RH  094%=      5-min Rain = 0
KBY1 130859Z 01002KT 20/19 A3006 RMK A01 T02010192  RH  094%=      5-min Rain = 0
KBY1 130900Z 01002KT 20/19 A3006 RMK A01 T02010192  RH  094%=      5-min Rain = 0
KBY1 130901Z 01002KT 20/19 A3006 RMK A01 T02010192  RH  094%=      5-min Rain = 0
KBY1 130902Z 36001KT 20/19 A3006 RMK A01 T02010192  RH  094%=      5-min Rain = 0
KBY1 130903Z 00001KT 20/19 A3006 RMK A01 T02010193  RH  095%=      5-min Rain = 0
KBY1 130904Z 35002KT 20/19 A3006 RMK A01 T02010194  RH  095%=      5-min Rain = 0
KBY1 130905Z 00002KT 20/19 A3006 RMK A01 T02020194  RH  095%=      5-min Rain = 0
KBY1 130906Z 36002KT 20/19 A3006 RMK A01 T02020194  RH  095%=      5-min Rain = 0
KBY1 130907Z 35003KT 20/19 A3006 RMK A01 T02010193  RH  095%=      5-min Rain = 0
KBY1 130908Z 35002KT 20/19 A3006 RMK A01 T02010193  RH  095%=      5-min Rain = 0
KBY1 130909Z 35002KT 20/19 A3006 RMK A01 T02000192  RH  095%=      5-min Rain = 0
KBY1 130910Z 35002KT 20/19 A3006 RMK A01 T02010193  RH  095%=      5-min Rain = 0
KBY1 130911Z 35002KT 20/19 A3006 RMK A01 T02010193  RH  095%=      5-min Rain = 0
KBY1 130912Z 36002KT 20/19 A3006 RMK A01 T02010193  RH  095%=      5-min Rain = 0
KBY1 130913Z 36002KT 20/19 A3006 RMK A01 T02000193  RH  095%=      5-min Rain = 0
KBY1 130914Z 35002KT 20/19 A3006 RMK A01 T02000194  RH  096%=      5-min Rain = 0
KBY1 130915Z 00002KT 20/19 A3006 RMK A01 T02000194  RH  096%=      5-min Rain = 0
KBY1 130916Z 00002KT 20/19 A3006 RMK A01 T02000194  RH  096%=      5-min Rain = 0
KBY1 130917Z 01002KT 20/19 A3006 RMK A01 T02000194  RH  096%=      5-min Rain = 0
KBY1 130918Z 00002KT 20/19 A3006 RMK A01 T02000194  RH  096%=      5-min Rain = 0
KBY1 130919Z 36003KT 20/19 A3006 RMK A01 T01990192  RH  096%=      5-min Rain = 0
KBY1 130920Z 36002KT 20/19 A3006 RMK A01 T01990192  RH  096%=      5-min Rain = 0
KBY1 130921Z 35002KT 20/19 A3006 RMK A01 T01990192  RH  096%=      5-min Rain = 0
KBY1 130922Z 00003KT 20/19 A3006 RMK A01 T01990192  RH  096%=      5-min Rain = 0
KBY1 130923Z 00003KT 20/19 A3006 RMK A01 T01990192  RH  096%=      5-min Rain = 0
KBY1 130924Z 01003KT 20/19 A3006 RMK A01 T01990192  RH  096%=      5-min Rain = 0
KBY1 130925Z 01003KT 20/19 A3006 RMK A01 T01990192  RH  095%=      5-min Rain = 0
KBY1 130926Z 01003KT 20/19 A3006 RMK A01 T01990192  RH  095%=      5-min Rain = 0
KBY1 130927Z 01003KT 20/19 A3006 RMK A01 T01990192  RH  096%=      5-min Rain = 0
KBY1 130928Z 01003KT 20/19 A3006 RMK A01 T01990192  RH  096%=      5-min Rain = 0
KBY1 130929Z 01002KT 20/19 A3006 RMK A01 T01990192  RH  096%=      5-min Rain = 0
KBY1 130930Z 01002KT 20/19 A3006 RMK A01 T01990192  RH  096%=      5-min Rain = 0
KBY1 130931Z 01001KT 20/19 A3006 RMK A01 T01990193  RH  096%=      5-min Rain = 0
KBY1 130932Z 01001KT 20/19 A3006 RMK A01 T01990193  RH  096%=      5-min Rain = 0
KBY1 130933Z 00000KT 20/19 A3006 RMK A01 T01990193  RH  096%=      5-min Rain = 0
KBY1 130934Z 00000KT 20/19 A3006 RMK A01 T01990193  RH  097%=      5-min Rain = 0
KBY1 130935Z 00000KT 20/19 A3006 RMK A01 T01990193  RH  096%=      5-min Rain = 0
KBY1 130936Z 36000KT 20/19 A3006 RMK A01 T01980193  RH  096%=      5-min Rain = 0
KBY1 130937Z 00000KT 20/19 A3006 RMK A01 T01980192  RH  096%=      5-min Rain = 0
KBY1 130938Z 00000KT 20/19 A3006 RMK A01 T01970192  RH  097%=      5-min Rain = 0
KBY1 130939Z 00000KT 20/19 A3006 RMK A01 T01970192  RH  097%=      5-min Rain = 0
KBY1 130940Z 00000KT 20/19 A3006 RMK A01 T01970193  RH  097%=      5-min Rain = 0
KBY1 130941Z 00000KT 20/19 A3006 RMK A01 T01970192  RH  097%=      5-min Rain = 0
KBY1 130942Z 00000KT 20/19 A3006 RMK A01 T01970192  RH  097%=      5-min Rain = 0
KBY1 130943Z 00000KT 20/19 A3006 RMK A01 T01960192  RH  097%=      5-min Rain = 0
KBY1 130944Z 00000KT 20/19 A3006 RMK A01 T01960192  RH  097%=      5-min Rain = 0
KBY1 130945Z 04000KT 20/19 A3006 RMK A01 T01960192  RH  097%=      5-min Rain = 0
KBY1 130946Z 03000KT 20/19 A3006 RMK A01 T01960192  RH  098%=      5-min Rain = 0
KBY1 130947Z 00000KT 20/19 A3006 RMK A01 T01960192  RH  097%=      5-min Rain = 0
KBY1 130948Z 00000KT 20/19 A3006 RMK A01 T01960192  RH  098%=      5-min Rain = 0
KBY1 130949Z 00000KT 20/19 A3006 RMK A01 T01960192  RH  098%=      5-min Rain = 0
KBY1 130950Z 00000KT 20/19 A3006 RMK A01 T01960192  RH  098%=      5-min Rain = 0
KBY1 130951Z 00000KT 20/19 A3006 RMK A01 T01960192  RH  097%=      5-min Rain = 0
KBY1 130952Z 00000KT 20/19 A3007 RMK A01 T01960192  RH  097%=      5-min Rain = 0
KBY1 130953Z 00000KT 20/19 A3007 RMK A01 T01960192  RH  098%=      5-min Rain = 0
KBY1 130954Z 00000KT 20/19 A3007 RMK A01 T01960192  RH  098%=      5-min Rain = 0
KBY1 130955Z 01000KT 20/19 A3007 RMK A01 T01960193  RH  098%=      5-min Rain = 0
KBY1 130956Z 01000KT 20/19 A3007 RMK A01 T01960193  RH  098%=      5-min Rain = 0
KBY1 130957Z 36000KT 20/19 A3007 RMK A01 T01960193  RH  098%=      5-min Rain = 0
KBY1 130958Z 02000KT 20/19 A3007 RMK A01 T01960193  RH  098%=      5-min Rain = 0
KBY1 130959Z 00000KT 20/19 A3007 RMK A01 T01960193  RH  098%=      5-min Rain = 0
KBY1 131000Z 04001KT 20/19 A3007 RMK A01 T01960193  RH  098%=      5-min Rain = 0
KBY1 131001Z 00000KT 20/19 A3007 RMK A01 T01970194  RH  098%=      5-min Rain = 0
KBY1 131002Z 00000KT 20/19 A3007 RMK A01 T01970193  RH  098%=      5-min Rain = 0
KBY1 131003Z 02001KT 20/19 A3007 RMK A01 T01970194  RH  098%=      5-min Rain = 0
KBY1 131004Z 02002KT 20/19 A3008 RMK A01 T01960193  RH  098%=      5-min Rain = 0
KBY1 131005Z 02003KT 20/19 A3008 RMK A01 T01960192  RH  098%=      5-min Rain = 0
KBY1 131006Z 02002KT 20/19 A3008 RMK A01 T01960192  RH  097%=      5-min Rain = 0
KBY1 131007Z 02002KT 20/19 A3007 RMK A01 T01960191  RH  097%=      5-min Rain = 0
KBY1 131008Z 02002KT 20/19 A3007 RMK A01 T01960190  RH  096%=      5-min Rain = 0
KBY1 131009Z 02002KT 20/19 A3007 RMK A01 T01960189  RH  096%=      5-min Rain = 0
KBY1 131010Z 01002KT 20/19 A3008 RMK A01 T01960189  RH  096%=      5-min Rain = 0
KBY1 131011Z 00002KT 20/19 A3008 RMK A01 T01960189  RH  096%=      5-min Rain = 0
KBY1 131012Z 01002KT 20/19 A3008 RMK A01 T01970190  RH  096%=      5-min Rain = 0
KBY1 131013Z 01002KT 20/19 A3008 RMK A01 T01970189  RH  095%=      5-min Rain = 0
KBY1 131014Z 01002KT 20/19 A3008 RMK A01 T01970189  RH  095%=      5-min Rain = 0
KBY1 131015Z 36002KT 20/19 A3008 RMK A01 T01970189  RH  095%=      5-min Rain = 0
KBY1 131016Z 35002KT 20/19 A3008 RMK A01 T01970190  RH  096%=      5-min Rain = 0
KBY1 131017Z 35003KT 20/19 A3008 RMK A01 T01970190  RH  096%=      5-min Rain = 0
KBY1 131018Z 35003KT 20/19 A3008 RMK A01 T01960189  RH  096%=      5-min Rain = 0
KBY1 131019Z 35004KT 20/19 A3008 RMK A01 T01960188  RH  096%=      5-min Rain = 0
KBY1 131020Z 36004KT 20/19 A3008 RMK A01 T01950188  RH  096%=      5-min Rain = 0
KBY1 131021Z 36004KT 20/19 A3008 RMK A01 T01950188  RH  096%=      5-min Rain = 0
KBY1 131022Z 00004KT 19/19 A3008 RMK A01 T01940188  RH  096%=      5-min Rain = 0
KBY1 131023Z 00004KT 19/19 A3008 RMK A01 T01940188  RH  096%=      5-min Rain = 0
KBY1 131024Z 00004KT 19/19 A3008 RMK A01 T01940188  RH  096%=      5-min Rain = 0
KBY1 131025Z 02004KT 19/19 A3008 RMK A01 T01940188  RH  096%=      5-min Rain = 0
KBY1 131026Z 00003KT 19/19 A3008 RMK A01 T01940188  RH  096%=      5-min Rain = 0
KBY1 131027Z 01003KT 19/19 A3008 RMK A01 T01940188  RH  096%=      5-min Rain = 0
KBY1 131028Z 00003KT 19/19 A3008 RMK A01 T01940188  RH  096%=      5-min Rain = 0
KBY1 131029Z 36003KT 19/19 A3008 RMK A01 T01940188  RH  096%=      5-min Rain = 0
KBY1 131030Z 00002KT 19/19 A3008 RMK A01 T01940188  RH  096%=      5-min Rain = 0
KBY1 131031Z 00002KT 19/19 A3008 RMK A01 T01940188  RH  096%=      5-min Rain = 0
KBY1 131032Z 36001KT 19/19 A3008 RMK A01 T01940188  RH  096%=      5-min Rain = 0
KBY1 131033Z 00000KT 19/19 A3008 RMK A01 T01940188  RH  096%=      5-min Rain = 0
KBY1 131034Z 00000KT 19/19 A3008 RMK A01 T01940189  RH  096%=      5-min Rain = 0
KBY1 131035Z 00000KT 19/19 A3008 RMK A01 T01940188  RH  096%=      5-min Rain = 0
KBY1 131036Z 00000KT 19/19 A3008 RMK A01 T01940188  RH  096%=      5-min Rain = 0
KBY1 131037Z 00000KT 19/19 A3008 RMK A01 T01940188  RH  096%=      5-min Rain = 0
KBY1 131038Z 28001KT 19/19 A3008 RMK A01 T01940189  RH  097%=      5-min Rain = 0
KBY1 131039Z 28001KT 19/19 A3008 RMK A01 T01940189  RH  097%=      5-min Rain = 0
KBY1 131040Z 28001KT 19/19 A3008 RMK A01 T01940190  RH  097%=      5-min Rain = 0
KBY1 131041Z 28001KT 19/19 A3008 RMK A01 T01940190  RH  097%=      5-min Rain = 0
KBY1 131042Z 29001KT 19/19 A3008 RMK A01 T01940190  RH  097%=      5-min Rain = 0
KBY1 131043Z 30000KT 19/19 A3008 RMK A01 T01940190  RH  098%=      5-min Rain = 0
KBY1 131044Z 31002KT 19/19 A3008 RMK A01 T01940190  RH  098%=      5-min Rain = 0
KBY1 131045Z 32001KT 19/19 A3009 RMK A01 T01930190  RH  098%=      5-min Rain = 0
KBY1 131046Z 33001KT 19/19 A3009 RMK A01 T01940190  RH  098%=      5-min Rain = 0
KBY1 131047Z 34002KT 19/19 A3009 RMK A01 T01930190  RH  098%=      5-min Rain = 0
KBY1 131048Z 34002KT 19/19 A3009 RMK A01 T01930190  RH  098%=      5-min Rain = 0
KBY1 131049Z 35002KT 19/19 A3009 RMK A01 T01930190  RH  098%=      5-min Rain = 0
KBY1 131050Z 01001KT 19/19 A3009 RMK A01 T01930190  RH  098%=      5-min Rain = 0
KBY1 131051Z 00001KT 19/19 A3009 RMK A01 T01930190  RH  098%=      5-min Rain = 0
KBY1 131052Z 02000KT 19/19 A3009 RMK A01 T01930190  RH  098%=      5-min Rain = 0
KBY1 131053Z 00000KT 19/19 A3009 RMK A01 T01930190  RH  099%=      5-min Rain = 0
KBY1 131054Z 00000KT 19/19 A3009 RMK A01 T01930191  RH  099%=      5-min Rain = 0
KBY1 131055Z 00000KT 19/19 A3009 RMK A01 T01920189  RH  098%=      5-min Rain = 0
KBY1 131056Z 00000KT 19/19 A3009 RMK A01 T01910188  RH  098%=      5-min Rain = 0
KBY1 131057Z 00000KT 19/19 A3009 RMK A01 T01900188  RH  098%=      5-min Rain = 0
KBY1 131058Z 00000KT 19/19 A3009 RMK A01 T01900188  RH  099%=      5-min Rain = 0
KBY1 131059Z 00000KT 19/19 A3009 RMK A01 T01900188  RH  099%=      5-min Rain = 0
KBY1 131100Z 31000KT 19/19 A3009 RMK A01 T01900188  RH  099%=      5-min Rain = 0
KBY1 131101Z 31001KT 19/19 A3009 RMK A01 T01900189  RH  099%=      5-min Rain = 0
KBY1 131102Z 31001KT 19/19 A3009 RMK A01 T01900190  RH  100%=      5-min Rain = 0
KBY1 131103Z 30001KT 19/19 A3009 RMK A01 T01900190  RH  100%=      5-min Rain = 0
KBY1 131104Z 27000KT 19/19 A3009 RMK A01 T01900190  RH  100%=      5-min Rain = 0
KBY1 131105Z 25001KT 19/19 A3009 RMK A01 T01900189  RH  099%=      5-min Rain = 0
KBY1 131106Z 26002KT 19/19 A3009 RMK A01 T01890188  RH  099%=      5-min Rain = 0
KBY1 131107Z 25002KT 19/19 A3009 RMK A01 T01890187  RH  099%=      5-min Rain = 0
KBY1 131108Z 26002KT 19/19 A3009 RMK A01 T01890187  RH  099%=      5-min Rain = 0
KBY1 131109Z 27002KT 19/19 A3009 RMK A01 T01890188  RH  099%=      5-min Rain = 0
KBY1 131110Z 27002KT 19/19 A3009 RMK A01 T01890187  RH  099%=      5-min Rain = 0
KBY1 131111Z 27003KT 19/19 A3009 RMK A01 T01890188  RH  099%=      5-min Rain = 0
KBY1 131112Z 27002KT 19/19 A3009 RMK A01 T01890188  RH  099%=      5-min Rain = 0
KBY1 131113Z 28002KT 19/19 A3009 RMK A01 T01890188  RH  099%=      5-min Rain = 0
KBY1 131114Z 28003KT 19/19 A3009 RMK A01 T01890187  RH  099%=      5-min Rain = 0
KBY1 131115Z 28002KT 19/19 A3009 RMK A01 T01890187  RH  099%=      5-min Rain = 0
KBY1 131116Z 27002KT 19/19 A3009 RMK A01 T01890187  RH  099%=      5-min Rain = 0
KBY1 131117Z 28003KT 19/19 A3009 RMK A01 T01880186  RH  099%=      5-min Rain = 0
KBY1 131118Z 27002KT 19/19 A3009 RMK A01 T01880186  RH  099%=      5-min Rain = 0
KBY1 131119Z 29002KT 19/19 A3009 RMK A01 T01880186  RH  098%=      5-min Rain = 0
KBY1 131120Z 29002KT 19/19 A3009 RMK A01 T01880186  RH  098%=      5-min Rain = 0
KBY1 131121Z 28002KT 19/19 A3009 RMK A01 T01880186  RH  098%=      5-min Rain = 0
KBY1 131122Z 28002KT 19/19 A3009 RMK A01 T01880185  RH  098%=      5-min Rain = 0
KBY1 131123Z 27002KT 19/19 A3009 RMK A01 T01880185  RH  098%=      5-min Rain = 0
KBY1 131124Z 28002KT 19/19 A3009 RMK A01 T01880185  RH  098%=      5-min Rain = 0
KBY1 131125Z 28003KT 19/19 A3009 RMK A01 T01880185  RH  098%=      5-min Rain = 0
KBY1 131126Z 28003KT 19/19 A3009 RMK A01 T01880185  RH  098%=      5-min Rain = 0
KBY1 131127Z 28002KT 19/19 A3009 RMK A01 T01880185  RH  098%=      5-min Rain = 0
KBY1 131128Z 27003KT 19/19 A3009 RMK A01 T01880185  RH  098%=      5-min Rain = 0
KBY1 131129Z 27002KT 19/19 A3009 RMK A01 T01880186  RH  098%=      5-min Rain = 0
KBY1 131130Z 26002KT 19/19 A3009 RMK A01 T01890186  RH  098%=      5-min Rain = 0
KBY1 131131Z 27002KT 19/19 A3009 RMK A01 T01890187  RH  098%=      5-min Rain = 0
KBY1 131132Z 27002KT 19/19 A3009 RMK A01 T01890187  RH  098%=      5-min Rain = 0
KBY1 131133Z 27002KT 19/19 A3009 RMK A01 T01890187  RH  098%=      5-min Rain = 0
KBY1 131134Z 27003KT 19/19 A3009 RMK A01 T01890186  RH  098%=      5-min Rain = 0
KBY1 131135Z 27003KT 19/19 A3009 RMK A01 T01890186  RH  098%=      5-min Rain = 0
KBY1 131136Z 27003KT 19/19 A3009 RMK A01 T01890186  RH  098%=      5-min Rain = 0
KBY1 131137Z 28003KT 19/19 A3009 RMK A01 T01890186  RH  098%=      5-min Rain = 0
KBY1 131138Z 28003KT 19/19 A3009 RMK A01 T01890186  RH  098%=      5-min Rain = 0
KBY1 131139Z 28004KT 19/19 A3009 RMK A01 T01890186  RH  098%=      5-min Rain = 0
KBY1 131140Z 29004KT 19/19 A301 RMK A01 T01890186  RH  098%=      5-min Rain = 0
KBY1 131141Z 29004KT 19/19 A301 RMK A01 T01880185  RH  098%=      5-min Rain = 0
KBY1 131142Z 29004KT 19/19 A301 RMK A01 T01880185  RH  098%=      5-min Rain = 0
KBY1 131143Z 29003KT 19/19 A301 RMK A01 T01880185  RH  098%=      5-min Rain = 0
KBY1 131144Z 30003KT 19/19 A301 RMK A01 T01880185  RH  098%=      5-min Rain = 0
KBY1 131145Z 30003KT 19/19 A301 RMK A01 T01880185  RH  098%=      5-min Rain = 0
KBY1 131146Z 30003KT 19/19 A301 RMK A01 T01870185  RH  098%=      5-min Rain = 0
KBY1 131147Z 31003KT 19/19 A301 RMK A01 T01880185  RH  098%=      5-min Rain = 0
KBY1 131148Z 31003KT 19/19 A301 RMK A01 T01870185  RH  098%=      5-min Rain = 0
KBY1 131149Z 31003KT 19/19 A301 RMK A01 T01870185  RH  099%=      5-min Rain = 0
KBY1 131150Z 32003KT 19/19 A3009 RMK A01 T01870185  RH  099%=      5-min Rain = 0
KBY1 131151Z 32003KT 19/19 A3009 RMK A01 T01880185  RH  099%=      5-min Rain = 0
KBY1 131152Z 32002KT 19/19 A3009 RMK A01 T01870185  RH  099%=      5-min Rain = 0
KBY1 131153Z 31002KT 19/19 A3009 RMK A01 T01880186  RH  099%=      5-min Rain = 0
KBY1 131154Z 31002KT 19/19 A3009 RMK A01 T01870185  RH  099%=      5-min Rain = 0
KBY1 131155Z 30002KT 19/19 A3009 RMK A01 T01880186  RH  099%=      5-min Rain = 0
KBY1 131156Z 31002KT 19/19 A3009 RMK A01 T01870186  RH  099%=      5-min Rain = 0
KBY1 131157Z 31002KT 19/19 A3009 RMK A01 T01870186  RH  099%=      5-min Rain = 0
KBY1 131158Z 31002KT 19/19 A3009 RMK A01 T01870186  RH  099%=      5-min Rain = 0
KBY1 131159Z 32002KT 19/19 A3009 RMK A01 T01870186  RH  099%=      5-min Rain = 0
KBY1 131200Z 32001KT 19/19 A3009 RMK A01 T01880186  RH  099%=      5-min Rain = 0
KBY1 131201Z 32000KT 19/19 A3009 RMK A01 T01880186  RH  099%=      5-min Rain = 0
KBY1 131202Z 32000KT 19/19 A3009 RMK A01 T01880187  RH  099%=      5-min Rain = 0
KBY1 131203Z 32000KT 19/19 A3009 RMK A01 T01880186  RH  099%=      5-min Rain = 0
KBY1 131204Z 30001KT 19/19 A3009 RMK A01 T01880186  RH  099%=      5-min Rain = 0
KBY1 131205Z 30001KT 19/19 A3009 RMK A01 T01880186  RH  099%=      5-min Rain = 0
KBY1 131206Z 30002KT 19/19 A3009 RMK A01 T01880187  RH  099%=      5-min Rain = 0
KBY1 131207Z 31002KT 19/19 A301 RMK A01 T01880187  RH  099%=      5-min Rain = 0
KBY1 131208Z 32003KT 19/19 A301 RMK A01 T01880187  RH  099%=      5-min Rain = 0
KBY1 131209Z 33003KT 19/19 A301 RMK A01 T01880187  RH  099%=      5-min Rain = 0
KBY1 131210Z 33004KT 19/19 A301 RMK A01 T01880187  RH  099%=      5-min Rain = 0
KBY1 131211Z 32004KT 19/19 A301 RMK A01 T01880187  RH  099%=      5-min Rain = 0
KBY1 131212Z 32004KT 19/19 A301 RMK A01 T01880187  RH  099%=      5-min Rain = 0
KBY1 131213Z 32005KT 19/19 A301 RMK A01 T01880188  RH  099%=      5-min Rain = 0
KBY1 131214Z 31005KT 19/19 A301 RMK A01 T01890188  RH  099%=      5-min Rain = 0
KBY1 131215Z 31004KT 19/19 A301 RMK A01 T01890189  RH  100%=      5-min Rain = 0
KBY1 131216Z 30005KT 19/19 A301 RMK A01 T01900189  RH  100%=      5-min Rain = 0
KBY1 131217Z 31005KT 19/19 A301 RMK A01 T01900189  RH  100%=      5-min Rain = 0
KBY1 131218Z 30005KT 19/19 A301 RMK A01 T01900189  RH  099%=      5-min Rain = 0
KBY1 131219Z 30005KT 19/19 A301 RMK A01 T01900189  RH  099%=      5-min Rain = 0
KBY1 131220Z 30005KT 19/19 A301 RMK A01 T01900189  RH  099%=      5-min Rain = 0
KBY1 131221Z 30004KT 19/19 A301 RMK A01 T01910190  RH  099%=      5-min Rain = 0
KBY1 131222Z 30004KT 19/19 A301 RMK A01 T01910189  RH  099%=      5-min Rain = 0
KBY1 131223Z 29003KT 19/19 A301 RMK A01 T01910190  RH  099%=      5-min Rain = 0
KBY1 131224Z 29003KT 19/19 A301 RMK A01 T01900189  RH  099%=      5-min Rain = 0
KBY1 131225Z 29004KT 19/19 A301 RMK A01 T01910189  RH  099%=      5-min Rain = 0
KBY1 131226Z 29004KT 19/19 A301 RMK A01 T01910189  RH  099%=      5-min Rain = 0
KBY1 131227Z 30003KT 19/19 A301 RMK A01 T01910189  RH  099%=      5-min Rain = 0
KBY1 131228Z 30003KT 19/19 A3011 RMK A01 T01910189  RH  099%=      5-min Rain = 0
KBY1 131229Z 30003KT 19/19 A3011 RMK A01 T01910189  RH  099%=      5-min Rain = 0
KBY1 131230Z 29004KT 19/19 A3011 RMK A01 T01910189  RH  099%=      5-min Rain = 0
KBY1 131231Z 30004KT 19/19 A3011 RMK A01 T01910189  RH  099%=      5-min Rain = 0
KBY1 131232Z 29003KT 19/19 A3011 RMK A01 T01910189  RH  099%=      5-min Rain = 0
KBY1 131233Z 28003KT 19/19 A3011 RMK A01 T01910189  RH  099%=      5-min Rain = 0
KBY1 131234Z 27003KT 19/19 A3011 RMK A01 T01910190  RH  099%=      5-min Rain = 0
KBY1 131235Z 28002KT 19/19 A3011 RMK A01 T01910190  RH  099%=      5-min Rain = 0
KBY1 131236Z 28002KT 19/19 A3011 RMK A01 T01910190  RH  099%=      5-min Rain = 0
KBY1 131237Z 28003KT 19/19 A3011 RMK A01 T01910190  RH  099%=      5-min Rain = 0
KBY1 131238Z 29003KT 19/19 A3011 RMK A01 T01920190  RH  099%=      5-min Rain = 0
KBY1 131239Z 28004KT 19/19 A3011 RMK A01 T01910190  RH  099%=      5-min Rain = 0
KBY1 131240Z 28003KT 19/19 A3011 RMK A01 T01920191  RH  099%=      5-min Rain = 0
KBY1 131241Z 27003KT 19/19 A3011 RMK A01 T01920191  RH  099%=      5-min Rain = 0
KBY1 131242Z 26004KT 19/19 A3011 RMK A01 T01920191  RH  099%=      5-min Rain = 0
KBY1 131243Z 28004KT 19/19 A3011 RMK A01 T01930191  RH  099%=      5-min Rain = 0
KBY1 131244Z 27003KT 19/19 A3011 RMK A01 T01930191  RH  099%=      5-min Rain = 0
KBY1 131245Z 27003KT 19/19 A3011 RMK A01 T01930191  RH  099%=      5-min Rain = 0
KBY1 131246Z 28001KT 19/19 A3011 RMK A01 T01930191  RH  099%=      5-min Rain = 0
KBY1 131247Z 26001KT 19/19 A3011 RMK A01 T01930191  RH  099%=      5-min Rain = 0
KBY1 131248Z 27002KT 19/19 A3011 RMK A01 T01930191  RH  099%=      5-min Rain = 0
KBY1 131249Z 24002KT 19/19 A3011 RMK A01 T01930191  RH  099%=      5-min Rain = 0
KBY1 131250Z 25003KT 19/19 A3011 RMK A01 T01940192  RH  099%=      5-min Rain = 0
KBY1 131251Z 25003KT 19/19 A3011 RMK A01 T01940192  RH  099%=      5-min Rain = 0
KBY1 131252Z 26003KT 19/19 A3011 RMK A01 T01940191  RH  098%=      5-min Rain = 0
KBY1 131253Z 26003KT 19/19 A3011 RMK A01 T01940191  RH  098%=      5-min Rain = 0
KBY1 131254Z 26003KT 19/19 A3011 RMK A01 T01940191  RH  098%=      5-min Rain = 0
KBY1 131255Z 26005KT 19/19 A3011 RMK A01 T01940191  RH  098%=      5-min Rain = 0
KBY1 131256Z 27004KT 19/19 A3011 RMK A01 T01940190  RH  098%=      5-min Rain = 0
KBY1 131257Z 27004KT 19/19 A3011 RMK A01 T01930190  RH  098%=      5-min Rain = 0
KBY1 131258Z 26004KT 19/19 A3011 RMK A01 T01930190  RH  098%=      5-min Rain = 0
KBY1 131259Z 27003KT 19/19 A3011 RMK A01 T01930190  RH  098%=      5-min Rain = 0
KBY1 131300Z 27003KT 19/19 A3011 RMK A01 T01930189  RH  097%=      5-min Rain = 0
KBY1 131301Z 28003KT 19/19 A3011 RMK A01 T01940189  RH  097%=      5-min Rain = 0
KBY1 131302Z 29002KT 19/19 A3011 RMK A01 T01930189  RH  097%=      5-min Rain = 0
KBY1 131303Z 28002KT 19/19 A3011 RMK A01 T01940190  RH  098%=      5-min Rain = 0
KBY1 131304Z 27003KT 19/19 A3011 RMK A01 T01940190  RH  098%=      5-min Rain = 0
KBY1 131305Z 27003KT 19/19 A3011 RMK A01 T01940190  RH  097%=      5-min Rain = 0
KBY1 131306Z 27004KT 20/19 A3011 RMK A01 T01950190  RH  097%=      5-min Rain = 0
KBY1 131307Z 27004KT 20/19 A3011 RMK A01 T01950190  RH  097%=      5-min Rain = 0
KBY1 131308Z 27005KT 20/19 A3011 RMK A01 T01950191  RH  097%=      5-min Rain = 0
KBY1 131309Z 27005KT 20/19 A3011 RMK A01 T01950190  RH  097%=      5-min Rain = 0
KBY1 131310Z 27005KT 20/19 A3011 RMK A01 T01950190  RH  097%=      5-min Rain = 0
KBY1 131311Z 27003KT 20/19 A3011 RMK A01 T01950190  RH  097%=      5-min Rain = 0
KBY1 131312Z 26004KT 20/19 A3011 RMK A01 T01960191  RH  097%=      5-min Rain = 0
KBY1 131313Z 27005KT 20/19 A3011 RMK A01 T01960192  RH  097%=      5-min Rain = 0
KBY1 131314Z 27004KT 20/19 A3011 RMK A01 T01960191  RH  097%=      5-min Rain = 0
KBY1 131315Z 27003KT 20/19 A3011 RMK A01 T01970192  RH  097%=      5-min Rain = 0
KBY1 131316Z 28003KT 20/19 A3011 RMK A01 T01970192  RH  097%=      5-min Rain = 0
KBY1 131317Z 27003KT 20/19 A3011 RMK A01 T01980194  RH  098%=      5-min Rain = 0
KBY1 131318Z 27003KT 20/19 A3011 RMK A01 T01990194  RH  097%=      5-min Rain = 0
KBY1 131319Z 26004KT 20/19 A3012 RMK A01 T01990193  RH  097%=      5-min Rain = 0
KBY1 131320Z 27003KT 20/19 A3012 RMK A01 T01980193  RH  097%=      5-min Rain = 0
KBY1 131321Z 26004KT 20/19 A3012 RMK A01 T01980193  RH  097%=      5-min Rain = 0
KBY1 131322Z 27004KT 20/19 A3012 RMK A01 T01990193  RH  096%=      5-min Rain = 0
KBY1 131323Z 26003KT 20/19 A3012 RMK A01 T01990194  RH  096%=      5-min Rain = 0
KBY1 131324Z 26004KT 20/19 A3012 RMK A01 T02000194  RH  096%=      5-min Rain = 0
KBY1 131325Z 25003KT 20/19 A3012 RMK A01 T02000192  RH  095%=      5-min Rain = 0
KBY1 131326Z 25003KT 20/19 A3012 RMK A01 T02000194  RH  096%=      5-min Rain = 0
KBY1 131327Z 26005KT 20/19 A3012 RMK A01 T02010193  RH  095%=      5-min Rain = 0
KBY1 131328Z 26004KT 20/19 A3012 RMK A01 T02010193  RH  095%=      5-min Rain = 0
KBY1 131329Z 26003KT 20/19 A3012 RMK A01 T02010193  RH  095%=      5-min Rain = 0
KBY1 131330Z 25004KT 20/19 A3012 RMK A01 T02010194  RH  096%=      5-min Rain = 0
KBY1 131331Z 26005KT 20/19 A3012 RMK A01 T02020193  RH  095%=      5-min Rain = 0
KBY1 131332Z 27004KT 20/19 A3012 RMK A01 T02020192  RH  094%=      5-min Rain = 0
KBY1 131333Z 26003KT 20/19 A3012 RMK A01 T02010192  RH  094%=      5-min Rain = 0
KBY1 131334Z 24003KT 20/19 A3012 RMK A01 T02020193  RH  094%=      5-min Rain = 0
KBY1 131335Z 23003KT 20/19 A3012 RMK A01 T02030193  RH  094%=      5-min Rain = 0
KBY1 131336Z 24003KT 20/20 A3012 RMK A01 T02040196  RH  095%=      5-min Rain = 0
KBY1 131337Z 25004KT 21/19 A3012 RMK A01 T02050194  RH  094%=      5-min Rain = 0
KBY1 131338Z 25003KT 20/19 A3012 RMK A01 T02040193  RH  093%=      5-min Rain = 0
KBY1 131339Z 26004KT 20/19 A3012 RMK A01 T02040193  RH  093%=      5-min Rain = 0
KBY1 131340Z 27003KT 20/19 A3012 RMK A01 T02040193  RH  093%=      5-min Rain = 0
KBY1 131341Z 26002KT 20/19 A3012 RMK A01 T02040193  RH  094%=      5-min Rain = 0
KBY1 131342Z 26001KT 21/20 A3012 RMK A01 T02060197  RH  095%=      5-min Rain = 0
KBY1 131343Z 26003KT 21/20 A3012 RMK A01 T02070197  RH  094%=      5-min Rain = 0
KBY1 131344Z 26003KT 21/20 A3012 RMK A01 T02070196  RH  093%=      5-min Rain = 0
KBY1 131345Z 26002KT 21/19 A3012 RMK A01 T02070194  RH  092%=      5-min Rain = 0
KBY1 131346Z 25003KT 21/20 A3012 RMK A01 T02070195  RH  092%=      5-min Rain = 0
KBY1 131347Z 24003KT 21/20 A3012 RMK A01 T02080196  RH  093%=      5-min Rain = 0
KBY1 131348Z 26002KT 21/20 A3012 RMK A01 T02090195  RH  092%=      5-min Rain = 0
KBY1 131349Z 25002KT 21/20 A3012 RMK A01 T02080195  RH  092%=      5-min Rain = 0
KBY1 131350Z 25003KT 21/20 A3012 RMK A01 T02090196  RH  092%=      5-min Rain = 0
KBY1 131351Z 25003KT 21/20 A3012 RMK A01 T02090196  RH  092%=      5-min Rain = 0
KBY1 131352Z 25003KT 21/20 A3012 RMK A01 T02090195  RH  092%=      5-min Rain = 0
KBY1 131353Z 27003KT 21/20 A3012 RMK A01 T02090196  RH  092%=      5-min Rain = 0
KBY1 131354Z 26004KT 21/19 A3012 RMK A01 T02090194  RH  091%=      5-min Rain = 0
KBY1 131355Z 27003KT 21/19 A3012 RMK A01 T02100194  RH  091%=      5-min Rain = 0
KBY1 131356Z 26002KT 21/20 A3012 RMK A01 T02090195  RH  091%=      5-min Rain = 0
KBY1 131357Z 26002KT 21/19 A3012 RMK A01 T02100194  RH  091%=      5-min Rain = 0
KBY1 131358Z 27001KT 21/20 A3012 RMK A01 T02100195  RH  092%=      5-min Rain = 0
KBY1 131359Z 26002KT 21/20 A3012 RMK A01 T02110197  RH  092%=      5-min Rain = 0
KBY1 131400Z 27003KT 21/20 A3012 RMK A01 T02110195  RH  090%=      5-min Rain = 0
KBY1 131401Z 27001KT 21/20 A3012 RMK A01 T02110195  RH  090%=      5-min Rain = 0
KBY1 131402Z 27002KT 21/20 A3012 RMK A01 T02110196  RH  091%=      5-min Rain = 0
KBY1 131403Z 26001KT 21/20 A3012 RMK A01 T02120196  RH  090%=      5-min Rain = 0
KBY1 131404Z 25001KT 21/20 A3012 RMK A01 T02120195  RH  090%=      5-min Rain = 0
KBY1 131405Z 25003KT 21/20 A3012 RMK A01 T02130197  RH  091%=      5-min Rain = 0
KBY1 131406Z 24002KT 21/20 A3012 RMK A01 T02140196  RH  090%=      5-min Rain = 0
KBY1 131407Z 23003KT 21/20 A3012 RMK A01 T02140196  RH  090%=      5-min Rain = 0
KBY1 131408Z 23002KT 22/20 A3012 RMK A01 T02150199  RH  091%=      5-min Rain = 0
KBY1 131409Z 22002KT 22/20 A3012 RMK A01 T02160197  RH  089%=      5-min Rain = 0
KBY1 131410Z 28002KT 22/20 A3012 RMK A01 T02160198  RH  089%=      5-min Rain = 0
KBY1 131411Z 28002KT 22/20 A3012 RMK A01 T02170198  RH  089%=      5-min Rain = 0
KBY1 131412Z 27003KT 22/20 A3012 RMK A01 T02170196  RH  088%=      5-min Rain = 0
KBY1 131413Z 27003KT 22/20 A3012 RMK A01 T02170198  RH  089%=      5-min Rain = 0
KBY1 131414Z 26002KT 22/20 A3012 RMK A01 T02170198  RH  089%=      5-min Rain = 0
KBY1 131415Z 27002KT 22/20 A3013 RMK A01 T02180197  RH  088%=      5-min Rain = 0
KBY1 131416Z 25002KT 22/20 A3013 RMK A01 T02180198  RH  088%=      5-min Rain = 0
KBY1 131417Z 24003KT 22/20 A3013 RMK A01 T02180198  RH  088%=      5-min Rain = 0
KBY1 131418Z 26003KT 22/20 A3013 RMK A01 T02200200  RH  089%=      5-min Rain = 0
KBY1 131419Z 27002KT 22/20 A3013 RMK A01 T02200199  RH  088%=      5-min Rain = 0
KBY1 131420Z 27002KT 22/20 A3013 RMK A01 T02200198  RH  087%=      5-min Rain = 0
KBY1 131421Z 24001KT 22/20 A3013 RMK A01 T02200198  RH  087%=      5-min Rain = 0
KBY1 131422Z 22002KT 22/20 A3013 RMK A01 T02210201  RH  088%=      5-min Rain = 0
KBY1 131423Z 25002KT 22/20 A3013 RMK A01 T02230204  RH  089%=      5-min Rain = 0
KBY1 131424Z 27002KT 22/20 A3013 RMK A01 T02240201  RH  087%=      5-min Rain = 0
KBY1 131425Z 26003KT 22/20 A3013 RMK A01 T02240198  RH  085%=      5-min Rain = 0
KBY1 131426Z 26002KT 22/20 A3013 RMK A01 T02230198  RH  086%=      5-min Rain = 0
KBY1 131427Z 26003KT 22/20 A3013 RMK A01 T02230199  RH  087%=      5-min Rain = 0
KBY1 131428Z 24003KT 22/20 A3013 RMK A01 T02240201  RH  087%=      5-min Rain = 0
KBY1 131429Z 23002KT 22/20 A3013 RMK A01 T02240199  RH  086%=      5-min Rain = 0
KBY1 131430Z 25001KT 22/20 A3013 RMK A01 T02240200  RH  086%=      5-min Rain = 0
KBY1 131431Z 21002KT 22/20 A3013 RMK A01 T02240198  RH  085%=      5-min Rain = 0
KBY1 131432Z 23003KT 23/20 A3013 RMK A01 T02250201  RH  086%=      5-min Rain = 0
KBY1 131433Z 23003KT 23/20 A3013 RMK A01 T02260202  RH  086%=      5-min Rain = 0
KBY1 131434Z 27003KT 23/20 A3013 RMK A01 T02270199  RH  085%=      5-min Rain = 0
KBY1 131435Z 30002KT 23/20 A3013 RMK A01 T02270200  RH  085%=      5-min Rain = 0
KBY1 131436Z 29002KT 23/20 A3013 RMK A01 T02270199  RH  084%=      5-min Rain = 0
KBY1 131437Z 23003KT 23/21 A3013 RMK A01 T02290205  RH  086%=      5-min Rain = 0
KBY1 131438Z 23003KT 23/20 A3013 RMK A01 T02310202  RH  084%=      5-min Rain = 0
KBY1 131439Z 23003KT 23/20 A3013 RMK A01 T02300200  RH  083%=      5-min Rain = 0
KBY1 131440Z 23003KT 23/20 A3013 RMK A01 T02300199  RH  083%=      5-min Rain = 0
KBY1 131441Z 22002KT 23/20 A3013 RMK A01 T02290200  RH  084%=      5-min Rain = 0
KBY1 131442Z 23002KT 23/20 A3013 RMK A01 T02290201  RH  084%=      5-min Rain = 0
KBY1 131443Z 23001KT 23/20 A3013 RMK A01 T02300202  RH  084%=      5-min Rain = 0
KBY1 131444Z 22001KT 23/20 A3013 RMK A01 T02310203  RH  084%=      5-min Rain = 0
KBY1 131445Z 23001KT 23/20 A3013 RMK A01 T02330203  RH  084%=      5-min Rain = 0
KBY1 131446Z 25003KT 23/20 A3013 RMK A01 T02340200  RH  081%=      5-min Rain = 0
KBY1 131447Z 22001KT 23/20 A3013 RMK A01 T02330198  RH  080%=      5-min Rain = 0
KBY1 131448Z 24002KT 23/20 A3013 RMK A01 T02340201  RH  082%=      5-min Rain = 0
KBY1 131449Z 28002KT 24/20 A3013 RMK A01 T02350200  RH  081%=      5-min Rain = 0
KBY1 131450Z 20000KT 24/20 A3013 RMK A01 T02350199  RH  080%=      5-min Rain = 0
KBY1 131451Z 25002KT 24/20 A3013 RMK A01 T02360200  RH  080%=      5-min Rain = 0
KBY1 131452Z 26003KT 24/20 A3013 RMK A01 T02370200  RH  080%=      5-min Rain = 0
KBY1 131453Z 28003KT 24/20 A3013 RMK A01 T02380201  RH  079%=      5-min Rain = 0
KBY1 131454Z 25003KT 24/20 A3013 RMK A01 T02390199  RH  078%=      5-min Rain = 0
KBY1 131455Z 25003KT 24/20 A3013 RMK A01 T02390199  RH  078%=      5-min Rain = 0
KBY1 131456Z 27004KT 24/20 A3013 RMK A01 T02390200  RH  079%=      5-min Rain = 0
KBY1 131457Z 27005KT 24/20 A3013 RMK A01 T02400199  RH  078%=      5-min Rain = 0
KBY1 131458Z 27005KT 24/20 A3013 RMK A01 T02390198  RH  077%=      5-min Rain = 0
KBY1 131459Z 25003KT 24/20 A3013 RMK A01 T02390197  RH  077%=      5-min Rain = 0
KBY1 131500Z 27003KT 24/20 A3013 RMK A01 T02390197  RH  077%=      5-min Rain = 0
KBY1 131501Z 26003KT 24/20 A3013 RMK A01 T02390198  RH  078%=      5-min Rain = 0
KBY1 131502Z 26002KT 24/20 A3013 RMK A01 T02390198  RH  078%=      5-min Rain = 0
KBY1 131503Z 28002KT 24/20 A3013 RMK A01 T02400197  RH  077%=      5-min Rain = 0
KBY1 131504Z 30002KT 24/20 A3013 RMK A01 T02400195  RH  076%=      5-min Rain = 0
KBY1 131505Z 24003KT 24/20 A3013 RMK A01 T02400199  RH  078%=      5-min Rain = 0
KBY1 131506Z 25005KT 24/20 A3013 RMK A01 T02420199  RH  077%=      5-min Rain = 0
KBY1 131507Z 26004KT 24/20 A3013 RMK A01 T02420200  RH  077%=      5-min Rain = 0
KBY1 131508Z 25004KT 24/20 A3013 RMK A01 T02440201  RH  077%=      5-min Rain = 0
KBY1 131509Z 26004KT 24/20 A3013 RMK A01 T02440197  RH  075%=      5-min Rain = 0
KBY1 131510Z 26005KT 24/20 A3013 RMK A01 T02440198  RH  076%=      5-min Rain = 0
KBY1 131511Z 25004KT 24/20 A3013 RMK A01 T02440198  RH  075%=      5-min Rain = 0
KBY1 131512Z 23002KT 24/20 A3013 RMK A01 T02440196  RH  075%=      5-min Rain = 0
KBY1 131513Z 27002KT 24/20 A3013 RMK A01 T02440200  RH  077%=      5-min Rain = 0
KBY1 131514Z 30002KT 25/20 A3013 RMK A01 T02460201  RH  076%=      5-min Rain = 0
KBY1 131515Z 26003KT 25/20 A3013 RMK A01 T02480196  RH  073%=      5-min Rain = 0
KBY1 131516Z 25002KT 25/20 A3013 RMK A01 T02470195  RH  072%=      5-min Rain = 0
KBY1 131517Z 28003KT 25/20 A3013 RMK A01 T02470197  RH  074%=      5-min Rain = 0
KBY1 131518Z 27005KT 25/20 A3013 RMK A01 T02480197  RH  073%=      5-min Rain = 0
KBY1 131519Z 30003KT 25/20 A3013 RMK A01 T02480197  RH  073%=      5-min Rain = 0
KBY1 131520Z 29004KT 25/20 A3013 RMK A01 T02480196  RH  073%=      5-min Rain = 0
KBY1 131521Z 27006KT 25/20 A3013 RMK A01 T02480195  RH  073%=      5-min Rain = 0
KBY1 131522Z 27005KT 25/20 A3013 RMK A01 T02470195  RH  073%=      5-min Rain = 0
KBY1 131523Z 28004KT 25/20 A3013 RMK A01 T02470196  RH  073%=      5-min Rain = 0
KBY1 131524Z 27004KT 25/20 A3013 RMK A01 T02470197  RH  074%=      5-min Rain = 0
KBY1 131525Z 27005KT 25/19 A3013 RMK A01 T02490192  RH  071%=      5-min Rain = 0
KBY1 131526Z 26005KT 25/19 A3013 RMK A01 T02490193  RH  071%=      5-min Rain = 0
KBY1 131527Z 25004KT 25/20 A3013 RMK A01 T02490195  RH  072%=      5-min Rain = 0
KBY1 131528Z 25003KT 25/20 A3013 RMK A01 T02480195  RH  072%=      5-min Rain = 0
KBY1 131529Z 26003KT 25/20 A3013 RMK A01 T02490197  RH  073%=      5-min Rain = 0
KBY1 131530Z 25004KT 25/20 A3013 RMK A01 T02520198  RH  072%=      5-min Rain = 0
KBY1 131531Z 27005KT 25/19 A3013 RMK A01 T02540194  RH  069%=      5-min Rain = 0
KBY1 131532Z 27004KT 26/19 A3013 RMK A01 T02550193  RH  068%=      5-min Rain = 0
KBY1 131533Z 29003KT 25/19 A3013 RMK A01 T02530192  RH  069%=      5-min Rain = 0
KBY1 131534Z 24004KT 25/20 A3013 RMK A01 T02530195  RH  070%=      5-min Rain = 0
KBY1 131535Z 25005KT 25/19 A3013 RMK A01 T02540194  RH  069%=      5-min Rain = 0
KBY1 131536Z 23003KT 25/19 A3013 RMK A01 T02520192  RH  069%=      5-min Rain = 0
KBY1 131537Z 24003KT 25/19 A3013 RMK A01 T02520192  RH  069%=      5-min Rain = 0
KBY1 131538Z 27003KT 25/19 A3013 RMK A01 T02510193  RH  070%=      5-min Rain = 0
KBY1 131539Z 27004KT 25/20 A3013 RMK A01 T02510195  RH  071%=      5-min Rain = 0
KBY1 131540Z 28004KT 25/20 A3013 RMK A01 T02530196  RH  070%=      5-min Rain = 0
KBY1 131541Z 29004KT 25/19 A3013 RMK A01 T02540194  RH  069%=      5-min Rain = 0
KBY1 131542Z 28003KT 26/19 A3013 RMK A01 T02550192  RH  068%=      5-min Rain = 0
KBY1 131543Z 29003KT 25/19 A3013 RMK A01 T02540192  RH  068%=      5-min Rain = 0
KBY1 131544Z 30003KT 25/19 A3013 RMK A01 T02540190  RH  068%=      5-min Rain = 0
KBY1 131545Z 36001KT 25/19 A3013 RMK A01 T02530193  RH  069%=      5-min Rain = 0
KBY1 131546Z 03002KT 25/19 A3013 RMK A01 T02540190  RH  068%=      5-min Rain = 0
KBY1 131547Z 02001KT 25/19 A3013 RMK A01 T02530191  RH  068%=      5-min Rain = 0
KBY1 131548Z 20000KT 25/19 A3013 RMK A01 T02540193  RH  069%=      5-min Rain = 0
KBY1 131549Z 24001KT 26/20 A3013 RMK A01 T02570196  RH  069%=      5-min Rain = 0
KBY1 131550Z 24002KT 26/20 A3013 RMK A01 T02600196  RH  068%=      5-min Rain = 0
KBY1 131551Z 22003KT 26/20 A3013 RMK A01 T02600196  RH  067%=      5-min Rain = 0
KBY1 131552Z 22004KT 26/20 A3013 RMK A01 T02610197  RH  068%=      5-min Rain = 0
KBY1 131553Z 20003KT 26/20 A3013 RMK A01 T02610195  RH  067%=      5-min Rain = 0
KBY1 131554Z 22002KT 26/20 A3013 RMK A01 T02610196  RH  067%=      5-min Rain = 0
KBY1 131555Z 27001KT 26/19 A3014 RMK A01 T02600194  RH  067%=      5-min Rain = 0
KBY1 131556Z 04001KT 26/19 A3014 RMK A01 T02590192  RH  067%=      5-min Rain = 0
KBY1 131557Z 04002KT 26/19 A3014 RMK A01 T02580194  RH  068%=      5-min Rain = 0
KBY1 131558Z 09003KT 26/19 A3014 RMK A01 T02580192  RH  067%=      5-min Rain = 0
KBY1 131559Z 09003KT 26/19 A3014 RMK A01 T02580192  RH  067%=      5-min Rain = 0
KBY1 131600Z 10004KT 26/19 A3014 RMK A01 T02580194  RH  068%=      5-min Rain = 0
KBY1 131601Z 09004KT 26/20 A3014 RMK A01 T02590195  RH  068%=      5-min Rain = 0
KBY1 131602Z 08003KT 26/20 A3014 RMK A01 T02600195  RH  067%=      5-min Rain = 0
KBY1 131603Z 09001KT 26/20 A3014 RMK A01 T02610195  RH  067%=      5-min Rain = 0
KBY1 131604Z 05002KT 26/20 A3014 RMK A01 T02620197  RH  068%=      5-min Rain = 0
KBY1 131605Z 07001KT 26/19 A3014 RMK A01 T02620193  RH  066%=      5-min Rain = 0
KBY1 131606Z 06003KT 26/20 A3014 RMK A01 T02620195  RH  067%=      5-min Rain = 0
KBY1 131607Z 06003KT 26/20 A3014 RMK A01 T02630196  RH  067%=      5-min Rain = 0
KBY1 131608Z 04002KT 26/19 A3014 RMK A01 T02640194  RH  066%=      5-min Rain = 0
KBY1 131609Z 01002KT 26/20 A3014 RMK A01 T02630196  RH  067%=      5-min Rain = 0
KBY1 131610Z 05002KT 26/20 A3014 RMK A01 T02640197  RH  067%=      5-min Rain = 0
KBY1 131611Z 06002KT 26/19 A3014 RMK A01 T02640194  RH  065%=      5-min Rain = 0
KBY1 131612Z 08001KT 26/20 A3014 RMK A01 T02640200  RH  068%=      5-min Rain = 0
KBY1 131613Z 08002KT 27/20 A3014 RMK A01 T02660197  RH  066%=      5-min Rain = 0
KBY1 131614Z 05001KT 27/20 A3014 RMK A01 T02670196  RH  065%=      5-min Rain = 0
KBY1 131615Z 08001KT 27/20 A3014 RMK A01 T02670197  RH  065%=      5-min Rain = 0
KBY1 131616Z 11001KT 27/20 A3014 RMK A01 T02680199  RH  066%=      5-min Rain = 0
KBY1 131617Z 09003KT 27/20 A3014 RMK A01 T02690198  RH  065%=      5-min Rain = 0
KBY1 131618Z 13004KT 27/20 A3014 RMK A01 T02700199  RH  065%=      5-min Rain = 0
KBY1 131619Z 13004KT 27/20 A3014 RMK A01 T02700200  RH  065%=      5-min Rain = 0
KBY1 131620Z 14004KT 27/20 A3014 RMK A01 T02710199  RH  064%=      5-min Rain = 0
KBY1 131621Z 16003KT 27/20 A3014 RMK A01 T02710196  RH  064%=      5-min Rain = 0
KBY1 131622Z 18003KT 27/20 A3014 RMK A01 T02700197  RH  064%=      5-min Rain = 0
KBY1 131623Z 19002KT 27/20 A3014 RMK A01 T02680196  RH  065%=      5-min Rain = 0
KBY1 131624Z 19003KT 27/20 A3014 RMK A01 T02680196  RH  065%=      5-min Rain = 0
KBY1 131625Z 14002KT 27/19 A3014 RMK A01 T02670194  RH  064%=      5-min Rain = 0
KBY1 131626Z 13004KT 27/20 A3014 RMK A01 T02670195  RH  065%=      5-min Rain = 0
KBY1 131627Z 14003KT 27/19 A3014 RMK A01 T02670194  RH  064%=      5-min Rain = 0
KBY1 131628Z 15002KT 27/20 A3014 RMK A01 T02670195  RH  065%=      5-min Rain = 0
KBY1 131629Z 18001KT 27/20 A3014 RMK A01 T02670198  RH  066%=      5-min Rain = 0
KBY1 131630Z 18003KT 27/20 A3014 RMK A01 T02670195  RH  064%=      5-min Rain = 0
KBY1 131631Z 17002KT 27/20 A3014 RMK A01 T02680196  RH  065%=      5-min Rain = 0
KBY1 131632Z 36001KT 27/20 A3014 RMK A01 T02680195  RH  064%=      5-min Rain = 0
KBY1 131633Z 20000KT 27/19 A3014 RMK A01 T02680194  RH  064%=      5-min Rain = 0
KBY1 131634Z 28001KT 27/20 A3014 RMK A01 T02680195  RH  064%=      5-min Rain = 0
KBY1 131635Z 26000KT 27/20 A3014 RMK A01 T02690198  RH  065%=      5-min Rain = 0
KBY1 131636Z 03000KT 27/20 A3014 RMK A01 T02700196  RH  064%=      5-min Rain = 0
KBY1 131637Z 05001KT 27/20 A3014 RMK A01 T02720199  RH  064%=      5-min Rain = 0
KBY1 131638Z 08002KT 27/20 A3014 RMK A01 T02730196  RH  063%=      5-min Rain = 0
KBY1 131639Z 07002KT 27/20 A3014 RMK A01 T02730197  RH  063%=      5-min Rain = 0
KBY1 131640Z 06001KT 27/20 A3014 RMK A01 T02720197  RH  063%=      5-min Rain = 0
KBY1 131641Z 06002KT 27/20 A3014 RMK A01 T02720201  RH  065%=      5-min Rain = 0
KBY1 131642Z 08002KT 27/20 A3014 RMK A01 T02740199  RH  064%=      5-min Rain = 0
KBY1 131643Z 13003KT 28/20 A3014 RMK A01 T02750197  RH  062%=      5-min Rain = 0
KBY1 131644Z 13003KT 28/20 A3014 RMK A01 T02760196  RH  062%=      5-min Rain = 0
KBY1 131645Z 11003KT 28/20 A3014 RMK A01 T02760199  RH  063%=      5-min Rain = 0
KBY1 131646Z 14003KT 28/20 A3014 RMK A01 T02780201  RH  063%=      5-min Rain = 0
KBY1 131647Z 12001KT 28/20 A3014 RMK A01 T02810198  RH  061%=      5-min Rain = 0
KBY1 131648Z 17003KT 28/20 A3014 RMK A01 T02820197  RH  060%=      5-min Rain = 0
KBY1 131649Z 19002KT 28/20 A3014 RMK A01 T02810196  RH  060%=      5-min Rain = 0
KBY1 131650Z 17001KT 28/20 A3014 RMK A01 T02800197  RH  061%=      5-min Rain = 0
KBY1 131651Z 18001KT 28/20 A3014 RMK A01 T02790195  RH  060%=      5-min Rain = 0
KBY1 131652Z 12001KT 28/20 A3014 RMK A01 T02790197  RH  061%=      5-min Rain = 0
KBY1 131653Z 09000KT 28/20 A3014 RMK A01 T02800198  RH  061%=      5-min Rain = 0
KBY1 131654Z 24001KT 28/20 A3014 RMK A01 T02810201  RH  062%=      5-min Rain = 0
KBY1 131655Z 25002KT 28/20 A3014 RMK A01 T02830200  RH  061%=      5-min Rain = 0
KBY1 131656Z 24002KT 28/20 A3014 RMK A01 T02830196  RH  059%=      5-min Rain = 0
KBY1 131657Z 24001KT 28/20 A3014 RMK A01 T02820196  RH  060%=      5-min Rain = 0
KBY1 131658Z 26001KT 28/20 A3014 RMK A01 T02810196  RH  060%=      5-min Rain = 0
KBY1 131659Z 11000KT 28/20 A3014 RMK A01 T02810196  RH  060%=      5-min Rain = 0
KBY1 131700Z 07003KT 28/20 A3014 RMK A01 T02800199  RH  061%=      5-min Rain = 0
KBY1 131701Z 07004KT 28/20 A3014 RMK A01 T02810201  RH  062%=      5-min Rain = 0
KBY1 131702Z 07003KT 28/20 A3014 RMK A01 T02820201  RH  061%=      5-min Rain = 0
KBY1 131703Z 05003KT 28/20 A3014 RMK A01 T02820201  RH  061%=      5-min Rain = 0
KBY1 131704Z 07003KT 28/20 A3014 RMK A01 T02810199  RH  061%=      5-min Rain = 0
KBY1 131705Z 06005KT 28/20 A3014 RMK A01 T02800200  RH  062%=      5-min Rain = 0
KBY1 131706Z 05005KT 28/20 A3014 RMK A01 T02800200  RH  062%=      5-min Rain = 0
KBY1 131707Z 05003KT 28/20 A3014 RMK A01 T02810201  RH  062%=      5-min Rain = 0
KBY1 131708Z 06003KT 28/20 A3014 RMK A01 T02820203  RH  062%=      5-min Rain = 0
KBY1 131709Z 05003KT 28/20 A3014 RMK A01 T02840200  RH  060%=      5-min Rain = 0
KBY1 131710Z 07004KT 28/20 A3014 RMK A01 T02840202  RH  061%=      5-min Rain = 0
KBY1 131711Z 08004KT 29/20 A3014 RMK A01 T02860200  RH  060%=      5-min Rain = 0
KBY1 131712Z 06005KT 29/20 A3014 RMK A01 T02860198  RH  059%=      5-min Rain = 0
KBY1 131713Z 04004KT 29/20 A3014 RMK A01 T02850198  RH  059%=      5-min Rain = 0
KBY1 131714Z 06006KT 28/20 A3014 RMK A01 T02840204  RH  062%=      5-min Rain = 0
KBY1 131715Z 07006KT 29/20 A3014 RMK A01 T02870201  RH  060%=      5-min Rain = 0
KBY1 131716Z 05004KT 29/20 A3014 RMK A01 T02880198  RH  058%=      5-min Rain = 0
KBY1 131717Z 04005KT 29/20 A3014 RMK A01 T02860195  RH  058%=      5-min Rain = 0
KBY1 131718Z 05003KT 28/19 A3014 RMK A01 T02840194  RH  058%=      5-min Rain = 0
KBY1 131719Z 04004KT 28/19 A3014 RMK A01 T02830194  RH  058%=      5-min Rain = 0
KBY1 131720Z 04003KT 28/20 A3014 RMK A01 T02820195  RH  059%=      5-min Rain = 0
KBY1 131721Z 03003KT 28/19 A3014 RMK A01 T02820193  RH  059%=      5-min Rain = 0
KBY1 131722Z 01002KT 28/19 A3014 RMK A01 T02820194  RH  059%=      5-min Rain = 0
KBY1 131723Z 35000KT 28/19 A3014 RMK A01 T02820193  RH  058%=      5-min Rain = 0
KBY1 131724Z 03001KT 28/19 A3014 RMK A01 T02830191  RH  057%=      5-min Rain = 0
KBY1 131725Z 06004KT 28/19 A3014 RMK A01 T02830194  RH  058%=      5-min Rain = 0
KBY1 131726Z 05004KT 28/19 A3014 RMK A01 T02840193  RH  058%=      5-min Rain = 0
KBY1 131727Z 05005KT 29/19 A3014 RMK A01 T02850190  RH  057%=      5-min Rain = 0
KBY1 131728Z 05006KT 29/20 A3014 RMK A01 T02850196  RH  059%=      5-min Rain = 0
KBY1 131729Z 06006KT 29/19 A3014 RMK A01 T02870194  RH  057%=      5-min Rain = 0
KBY1 131730Z 06005KT 29/19 A3014 RMK A01 T02880191  RH  056%=      5-min Rain = 0
KBY1 131731Z 07003KT 29/19 A3014 RMK A01 T02870193  RH  057%=      5-min Rain = 0
KBY1 131732Z 34001KT 29/20 A3014 RMK A01 T02870195  RH  058%=      5-min Rain = 0
KBY1 131733Z 08005KT 29/19 A3014 RMK A01 T02880193  RH  056%=      5-min Rain = 0
KBY1 131734Z 08007KT 29/19 A3014 RMK A01 T02910194  RH  056%=      5-min Rain = 0
KBY1 131735Z 08005KT 29/19 A3014 RMK A01 T02920192  RH  055%=      5-min Rain = 0
KBY1 131736Z 05003KT 29/19 A3014 RMK A01 T02920191  RH  055%=      5-min Rain = 0
KBY1 131737Z 08003KT 29/20 A3014 RMK A01 T02920195  RH  056%=      5-min Rain = 0
KBY1 131738Z 08005KT 29/19 A3014 RMK A01 T02930194  RH  055%=      5-min Rain = 0
KBY1 131739Z 09004KT 29/19 A3014 RMK A01 T02940189  RH  053%=      5-min Rain = 0
KBY1 131740Z 09006KT 29/19 A3014 RMK A01 T02940186  RH  052%=      5-min Rain = 0
KBY1 131741Z 09005KT 30/19 A3014 RMK A01 T02950185  RH  052%=      5-min Rain = 0
KBY1 131742Z 08004KT 29/19 A3014 RMK A01 T02930189  RH  054%=      5-min Rain = 0
KBY1 131743Z 06005KT 29/19 A3014 RMK A01 T02930194  RH  055%=      5-min Rain = 0
KBY1 131744Z 04004KT 29/19 A3014 RMK A01 T02930191  RH  054%=      5-min Rain = 0
KBY1 131745Z 05003KT 29/19 A3014 RMK A01 T02930186  RH  052%=      5-min Rain = 0
KBY1 131746Z 02002KT 29/19 A3014 RMK A01 T02920186  RH  053%=      5-min Rain = 0
KBY1 131747Z 35001KT 29/19 A3014 RMK A01 T02920191  RH  054%=      5-min Rain = 0
KBY1 131748Z 06003KT 29/18 A3014 RMK A01 T02940184  RH  052%=      5-min Rain = 0
KBY1 131749Z 04002KT 30/18 A3014 RMK A01 T02950184  RH  051%=      5-min Rain = 0
KBY1 131750Z 03002KT 30/19 A3014 RMK A01 T02960187  RH  052%=      5-min Rain = 0
KBY1 131751Z 05004KT 30/19 A3013 RMK A01 T02970188  RH  052%=      5-min Rain = 0
KBY1 131752Z 08007KT 30/19 A3014 RMK A01 T02970192  RH  053%=      5-min Rain = 0
KBY1 131753Z 11006KT 30/19 A3014 RMK A01 T02980191  RH  052%=      5-min Rain = 0
KBY1 131754Z 09007KT 30/19 A3014 RMK A01 T02990192  RH  053%=      5-min Rain = 0
KBY1 131755Z 08006KT 30/19 A3014 RMK A01 T02990191  RH  053%=      5-min Rain = 0
KBY1 131756Z 08006KT 30/20 A3014 RMK A01 T02980195  RH  054%=      5-min Rain = 0
KBY1 131757Z 06008KT 30/20 A3014 RMK A01 T02970195  RH  054%=      5-min Rain = 0
KBY1 131758Z 05007KT 30/20 A3014 RMK A01 T02970195  RH  054%=      5-min Rain = 0
KBY1 131759Z 06006KT 30/20 A3014 RMK A01 T02980196  RH  054%=      5-min Rain = 0
KBY1 131800Z 06006KT 30/20 A3014 RMK A01 T02980196  RH  054%=      5-min Rain = 0
KBY1 131801Z 03007KT 30/19 A3014 RMK A01 T02980194  RH  054%=      5-min Rain = 0
KBY1 131802Z 04007KT 30/19 A3014 RMK A01 T02970192  RH  053%=      5-min Rain = 0
KBY1 131803Z 03005KT 30/19 A3014 RMK A01 T02960192  RH  054%=      5-min Rain = 0
KBY1 131804Z 02004KT 30/19 A3014 RMK A01 T02950191  RH  054%=      5-min Rain = 0
KBY1 131805Z 02004KT 30/19 A3013 RMK A01 T02950190  RH  053%=      5-min Rain = 0
KBY1 131806Z 02006KT 30/19 A3013 RMK A01 T02950193  RH  054%=      5-min Rain = 0
KBY1 131807Z 02003KT 30/19 A3013 RMK A01 T02970193  RH  054%=      5-min Rain = 0
KBY1 131808Z 08004KT 30/19 A3013 RMK A01 T02970194  RH  054%=      5-min Rain = 0
KBY1 131809Z 09006KT 30/19 A3014 RMK A01 T02980193  RH  053%=      5-min Rain = 0
KBY1 131810Z 10007KT 30/19 A3014 RMK A01 T03000190  RH  052%=      5-min Rain = 0
KBY1 131811Z 09008KT 30/19 A3014 RMK A01 T03030186  RH  050%=      5-min Rain = 0
KBY1 131812Z 08006KT 30/19 A3014 RMK A01 T03030186  RH  049%=      5-min Rain = 0
KBY1 131813Z 09010KT 30/19 A3014 RMK A01 T03020187  RH  050%=      5-min Rain = 0
KBY1 131814Z 10007KT 30/19 A3014 RMK A01 T03020187  RH  050%=      5-min Rain = 0
KBY1 131815Z 07007KT 30/19 A3014 RMK A01 T03030187  RH  050%=      5-min Rain = 0
KBY1 131816Z 06005KT 30/18 A3013 RMK A01 T03040184  RH  049%=      5-min Rain = 0
KBY1 131817Z 06005KT 30/19 A3013 RMK A01 T03030185  RH  049%=      5-min Rain = 0
KBY1 131818Z 06005KT 30/18 A3013 RMK A01 T03020183  RH  049%=      5-min Rain = 0
KBY1 131819Z 08006KT 30/19 A3013 RMK A01 T03020185  RH  050%=      5-min Rain = 0
KBY1 131820Z 12006KT 30/18 A3013 RMK A01 T03020183  RH  049%=      5-min Rain = 0
KBY1 131821Z 13005KT 30/18 A3013 RMK A01 T03030183  RH  049%=      5-min Rain = 0
KBY1 131822Z 15007KT 30/19 A3013 RMK A01 T03030186  RH  049%=      5-min Rain = 0
KBY1 131823Z 16005KT 30/18 A3013 RMK A01 T03040184  RH  049%=      5-min Rain = 0
KBY1 131824Z 17004KT 31/19 A3013 RMK A01 T03050187  RH  049%=      5-min Rain = 0
KBY1 131825Z 16004KT 31/19 A3013 RMK A01 T03060187  RH  049%=      5-min Rain = 0
KBY1 131826Z 08006KT 31/19 A3013 RMK A01 T03060191  RH  050%=      5-min Rain = 0
KBY1 131827Z 07006KT 31/19 A3013 RMK A01 T03070186  RH  048%=      5-min Rain = 0
KBY1 131828Z 04002KT 30/19 A3013 RMK A01 T03040187  RH  049%=      5-min Rain = 0
KBY1 131829Z 04004KT 30/19 A3013 RMK A01 T03030190  RH  051%=      5-min Rain = 0
KBY1 131830Z 05006KT 30/19 A3013 RMK A01 T03040189  RH  050%=      5-min Rain = 0
KBY1 131831Z 05006KT 31/19 A3013 RMK A01 T03050190  RH  050%=      5-min Rain = 0
KBY1 131832Z 05006KT 30/19 A3013 RMK A01 T03040192  RH  051%=      5-min Rain = 0
KBY1 131833Z 03005KT 30/19 A3013 RMK A01 T03030189  RH  050%=      5-min Rain = 0
KBY1 131834Z 04007KT 30/19 A3013 RMK A01 T03030192  RH  051%=      5-min Rain = 0
KBY1 131835Z 05004KT 30/19 A3013 RMK A01 T03040191  RH  051%=      5-min Rain = 0
KBY1 131836Z 06003KT 30/19 A3013 RMK A01 T03040192  RH  051%=      5-min Rain = 0
KBY1 131837Z 08008KT 31/19 A3013 RMK A01 T03060191  RH  050%=      5-min Rain = 0
KBY1 131838Z 08006KT 31/19 A3013 RMK A01 T03080187  RH  048%=      5-min Rain = 0
KBY1 131839Z 06007KT 31/19 A3013 RMK A01 T03090186  RH  048%=      5-min Rain = 0
KBY1 131840Z 07006KT 31/18 A3013 RMK A01 T03070184  RH  048%=      5-min Rain = 0
KBY1 131841Z 06004KT 31/19 A3013 RMK A01 T03060188  RH  050%=      5-min Rain = 0
KBY1 131842Z 02003KT 31/18 A3013 RMK A01 T03070183  RH  048%=      5-min Rain = 0
KBY1 131843Z 05004KT 31/19 A3013 RMK A01 T03060185  RH  048%=      5-min Rain = 0
KBY1 131844Z 10006KT 31/18 A3013 RMK A01 T03050184  RH  048%=      5-min Rain = 0
KBY1 131845Z 12006KT 31/18 A3013 RMK A01 T03050184  RH  049%=      5-min Rain = 0
KBY1 131846Z 09008KT 31/19 A3013 RMK A01 T03080191  RH  050%=      5-min Rain = 0
KBY1 131847Z 09008KT 31/19 A3013 RMK A01 T03120189  RH  048%=      5-min Rain = 0
KBY1 131848Z 08007KT 31/19 A3013 RMK A01 T03120188  RH  048%=      5-min Rain = 0
KBY1 131849Z 08008KT 31/19 A3013 RMK A01 T03140191  RH  048%=      5-min Rain = 0
KBY1 131850Z 09006KT 31/18 A3013 RMK A01 T03130184  RH  046%=      5-min Rain = 0
KBY1 131851Z 08006KT 31/19 A3013 RMK A01 T03120188  RH  048%=      5-min Rain = 0
KBY1 131852Z 11006KT 31/19 A3013 RMK A01 T03110187  RH  048%=      5-min Rain = 0
KBY1 131853Z 12008KT 31/19 A3013 RMK A01 T03120187  RH  047%=      5-min Rain = 0
KBY1 131854Z 13009KT 31/19 A3013 RMK A01 T03120189  RH  048%=      5-min Rain = 0
KBY1 131855Z 12005KT 31/19 A3013 RMK A01 T03130187  RH  047%=      5-min Rain = 0
KBY1 131856Z 11003KT 31/19 A3013 RMK A01 T03120188  RH  048%=      5-min Rain = 0
KBY1 131857Z 11006KT 31/19 A3013 RMK A01 T03120187  RH  048%=      5-min Rain = 0
KBY1 131858Z 14005KT 31/19 A3012 RMK A01 T03130187  RH  047%=      5-min Rain = 0
KBY1 131859Z 12009KT 32/19 A3012 RMK A01 T03150187  RH  047%=      5-min Rain = 0
KBY1 131900Z 12008KT 32/18 A3012 RMK A01 T03150179  RH  044%=      5-min Rain = 0
KBY1 131901Z 12011KT 31/18 A3012 RMK A01 T03140183  RH  046%=      5-min Rain = 0
KBY1 131902Z 11009KT 31/18 A3013 RMK A01 T03140180  RH  045%=      5-min Rain = 0
KBY1 131903Z 10009KT 31/18 A3013 RMK A01 T03140183  RH  046%=      5-min Rain = 0
KBY1 131904Z 11007KT 31/19 A3013 RMK A01 T03130187  RH  047%=      5-min Rain = 0
KBY1 131905Z 11007KT 31/19 A3012 RMK A01 T03140186  RH  046%=      5-min Rain = 0
KBY1 131906Z 12007KT 31/18 A3012 RMK A01 T03140183  RH  046%=      5-min Rain = 0
KBY1 131907Z 10009KT 31/19 A3012 RMK A01 T03140187  RH  047%=      5-min Rain = 0
KBY1 131908Z 12005KT 32/18 A3012 RMK A01 T03150181  RH  045%=      5-min Rain = 0
KBY1 131909Z 13006KT 31/18 A3012 RMK A01 T03140182  RH  045%=      5-min Rain = 0
KBY1 131910Z 11006KT 31/18 A3012 RMK A01 T03140183  RH  046%=      5-min Rain = 0
KBY1 131911Z 12011KT 31/18 A3012 RMK A01 T03130176  RH  044%=      5-min Rain = 0
KBY1 131912Z 10010KT 31/17 A3012 RMK A01 T03130173  RH  043%=      5-min Rain = 0
KBY1 131913Z 09009KT 32/18 A3012 RMK A01 T03150176  RH  043%=      5-min Rain = 0
KBY1 131914Z 11009KT 32/18 A3012 RMK A01 T03150178  RH  044%=      5-min Rain = 0
KBY1 131915Z 13008KT 31/18 A3012 RMK A01 T03140177  RH  044%=      5-min Rain = 0
KBY1 131916Z 14005KT 31/18 A3012 RMK A01 T03130177  RH  044%=      5-min Rain = 0
KBY1 131917Z 14008KT 31/18 A3012 RMK A01 T03140181  RH  045%=      5-min Rain = 0
KBY1 131918Z 14009KT 32/18 A3012 RMK A01 T03170181  RH  045%=      5-min Rain = 0
KBY1 131919Z 13009KT 32/18 A3012 RMK A01 T03180182  RH  045%=      5-min Rain = 0
KBY1 131920Z 11009KT 32/19 A3012 RMK A01 T03180185  RH  045%=      5-min Rain = 0
KBY1 131921Z 11008KT 32/19 A3012 RMK A01 T03170185  RH  045%=      5-min Rain = 0
KBY1 131922Z 10005KT 32/18 A3012 RMK A01 T03150182  RH  045%=      5-min Rain = 0
KBY1 131923Z 07005KT 32/18 A3012 RMK A01 T03150181  RH  045%=      5-min Rain = 0
KBY1 131924Z 06006KT 31/18 A3012 RMK A01 T03140180  RH  045%=      5-min Rain = 0
KBY1 131925Z 07004KT 32/18 A3012 RMK A01 T03150180  RH  045%=      5-min Rain = 0
KBY1 131926Z 08008G14KT 32/18 A3012 RMK A01 T03160184  RH  045%=      5-min Rain = 0
KBY1 131927Z 11009G15KT 32/19 A3012 RMK A01 T03190185  RH  045%=      5-min Rain = 0
KBY1 131928Z 10010KT 32/18 A3012 RMK A01 T03210182  RH  044%=      5-min Rain = 0
KBY1 131929Z 09008KT 32/18 A3012 RMK A01 T03190183  RH  044%=      5-min Rain = 0
KBY1 131930Z 08009KT 32/19 A3012 RMK A01 T03180185  RH  045%=      5-min Rain = 0
KBY1 131931Z 09007KT 32/19 A3012 RMK A01 T03180188  RH  046%=      5-min Rain = 0
KBY1 131932Z 10009G14KT 32/19 A3012 RMK A01 T03220188  RH  045%=      5-min Rain = 0
KBY1 131933Z 10011G16KT 32/19 A3012 RMK A01 T03230185  RH  044%=      5-min Rain = 0
KBY1 131934Z 11010KT 32/18 A3012 RMK A01 T03210182  RH  044%=      5-min Rain = 0
KBY1 131935Z 10008KT 32/18 A3012 RMK A01 T03190180  RH  043%=      5-min Rain = 0
KBY1 131936Z 09005KT 32/18 A3012 RMK A01 T03180179  RH  044%=      5-min Rain = 0
KBY1 131937Z 09004KT 32/18 A3011 RMK A01 T03170177  RH  043%=      5-min Rain = 0
KBY1 131938Z 11007G12KT 32/18 A3011 RMK A01 T03180179  RH  044%=      5-min Rain = 0
KBY1 131939Z 10010G15KT 32/18 A3011 RMK A01 T03210182  RH  044%=      5-min Rain = 0
KBY1 131940Z 11008KT 32/18 A3011 RMK A01 T03240178  RH  042%=      5-min Rain = 0
KBY1 131941Z 10010KT 32/18 A3011 RMK A01 T03230182  RH  043%=      5-min Rain = 0
KBY1 131942Z 09009KT 32/18 A3011 RMK A01 T03230183  RH  044%=      5-min Rain = 0
KBY1 131943Z 08008KT 32/18 A3011 RMK A01 T03220184  RH  044%=      5-min Rain = 0
KBY1 131944Z 07008KT 32/18 A3011 RMK A01 T03220183  RH  044%=      5-min Rain = 0
KBY1 131945Z 07009KT 32/18 A3011 RMK A01 T03210182  RH  044%=      5-min Rain = 0
KBY1 131946Z 08006KT 32/18 A3011 RMK A01 T03210181  RH  044%=      5-min Rain = 0
KBY1 131947Z 09008KT 32/18 A3011 RMK A01 T03200181  RH  043%=      5-min Rain = 0
KBY1 131948Z 09005KT 32/18 A3011 RMK A01 T03200175  RH  042%=      5-min Rain = 0
KBY1 131949Z 10007KT 32/18 A3011 RMK A01 T03180179  RH  044%=      5-min Rain = 0
KBY1 131950Z 12005KT 32/18 A3011 RMK A01 T03180176  RH  043%=      5-min Rain = 0
KBY1 131951Z 09007KT 32/18 A3011 RMK A01 T03190181  RH  044%=      5-min Rain = 0
KBY1 131952Z 11007KT 32/18 A3011 RMK A01 T03220181  RH  043%=      5-min Rain = 0
KBY1 131953Z 11007KT 32/18 A3011 RMK A01 T03240179  RH  042%=      5-min Rain = 0
KBY1 131954Z 10010KT 32/18 A3011 RMK A01 T03240177  RH  042%=      5-min Rain = 0
KBY1 131955Z 09012KT 33/18 A3011 RMK A01 T03250180  RH  042%=      5-min Rain = 0
KBY1 131956Z 09014KT 33/17 A3011 RMK A01 T03260174  RH  040%=      5-min Rain = 0
KBY1 131957Z 08011KT 32/17 A3011 RMK A01 T03240174  RH  041%=      5-min Rain = 0
KBY1 131958Z 07010KT 32/17 A3011 RMK A01 T03220173  RH  041%=      5-min Rain = 0
KBY1 131959Z 08009KT 32/18 A301 RMK A01 T03210175  RH  042%=      5-min Rain = 0
KBY1 132000Z 09008KT 32/18 A301 RMK A01 T03240178  RH  042%=      5-min Rain = 0
KBY1 132001Z 07008KT 33/18 A301 RMK A01 T03250178  RH  041%=      5-min Rain = 0
KBY1 132002Z 08006KT 33/18 A301 RMK A01 T03270177  RH  041%=      5-min Rain = 0
KBY1 132003Z 08011KT 33/18 A301 RMK A01 T03270181  RH  042%=      5-min Rain = 0
KBY1 132004Z 09011KT 33/18 A301 RMK A01 T03280177  RH  041%=      5-min Rain = 0
KBY1 132005Z 08009KT 33/17 A301 RMK A01 T03270174  RH  040%=      5-min Rain = 0
KBY1 132006Z 07010KT 33/17 A301 RMK A01 T03250173  RH  040%=      5-min Rain = 0
KBY1 132007Z 08009KT 32/18 A301 RMK A01 T03230175  RH  041%=      5-min Rain = 0
KBY1 132008Z 09006KT 32/17 A301 RMK A01 T03230174  RH  041%=      5-min Rain = 0
KBY1 132009Z 08007KT 32/18 A301 RMK A01 T03220176  RH  042%=      5-min Rain = 0
KBY1 132010Z 06007KT 32/18 A301 RMK A01 T03220181  RH  043%=      5-min Rain = 0
KBY1 132011Z 06008KT 32/18 A301 RMK A01 T03240177  RH  042%=      5-min Rain = 0
KBY1 132012Z 08008KT 32/18 A301 RMK A01 T03230179  RH  042%=      5-min Rain = 0
KBY1 132013Z 10007KT 32/18 A301 RMK A01 T03220183  RH  044%=      5-min Rain = 0
KBY1 132014Z 10007KT 33/19 A301 RMK A01 T03250186  RH  044%=      5-min Rain = 0
KBY1 132015Z 11010KT 33/18 A301 RMK A01 T03290183  RH  042%=      5-min Rain = 0
KBY1 132016Z 07009KT 33/18 A301 RMK A01 T03290183  RH  042%=      5-min Rain = 0
KBY1 132017Z 06007KT 33/18 A301 RMK A01 T03260180  RH  042%=      5-min Rain = 0
KBY1 132018Z 08006KT 33/18 A301 RMK A01 T03250180  RH  042%=      5-min Rain = 0
KBY1 132019Z 12004KT 33/18 A301 RMK A01 T03250178  RH  042%=      5-min Rain = 0
KBY1 132020Z 13002KT 32/18 A301 RMK A01 T03240177  RH  042%=      5-min Rain = 0
KBY1 132021Z 08003KT 32/18 A301 RMK A01 T03230178  RH  042%=      5-min Rain = 0
KBY1 132022Z 08004KT 32/18 A301 RMK A01 T03240179  RH  042%=      5-min Rain = 0
KBY1 132023Z 06007KT 33/18 A301 RMK A01 T03250184  RH  043%=      5-min Rain = 0
KBY1 132024Z 07006KT 33/18 A301 RMK A01 T03260179  RH  042%=      5-min Rain = 0
KBY1 132025Z 08008KT 33/18 A301 RMK A01 T03250184  RH  043%=      5-min Rain = 0
KBY1 132026Z 08010KT 33/18 A3009 RMK A01 T03250182  RH  043%=      5-min Rain = 0
KBY1 132027Z 09010KT 33/18 A3009 RMK A01 T03260180  RH  042%=      5-min Rain = 0
KBY1 132028Z 08008KT 33/18 A3009 RMK A01 T03260181  RH  042%=      5-min Rain = 0
KBY1 132029Z 08011KT 33/18 A3009 RMK A01 T03290182  RH  042%=      5-min Rain = 0
KBY1 132030Z 09012KT 33/18 A3009 RMK A01 T03300180  RH  041%=      5-min Rain = 0
KBY1 132031Z 10011KT 33/18 A3009 RMK A01 T03270181  RH  042%=      5-min Rain = 0
KBY1 132032Z 10010KT 33/18 A3009 RMK A01 T03270183  RH  042%=      5-min Rain = 0
KBY1 132033Z 09007KT 33/18 A3009 RMK A01 T03270184  RH  043%=      5-min Rain = 0
KBY1 132034Z 08006KT 33/19 A3009 RMK A01 T03280186  RH  043%=      5-min Rain = 0
KBY1 132035Z 08008KT 33/19 A3009 RMK A01 T03300187  RH  043%=      5-min Rain = 0
KBY1 132036Z 08009KT 33/18 A3009 RMK A01 T03310184  RH  042%=      5-min Rain = 0
KBY1 132037Z 08007KT 33/18 A3009 RMK A01 T03290183  RH  042%=      5-min Rain = 0
KBY1 132038Z 07005KT 33/18 A3009 RMK A01 T03280183  RH  042%=      5-min Rain = 0
KBY1 132039Z 07007KT 33/18 A3009 RMK A01 T03280183  RH  042%=      5-min Rain = 0
KBY1 132040Z 08009KT 33/19 A3009 RMK A01 T03310185  RH  042%=      5-min Rain = 0
KBY1 132041Z 06007KT 33/18 A3009 RMK A01 T03320182  RH  041%=      5-min Rain = 0
KBY1 132042Z 06004KT 33/18 A3009 RMK A01 T03290180  RH  041%=      5-min Rain = 0
KBY1 132043Z 05004KT 33/18 A3009 RMK A01 T03270180  RH  042%=      5-min Rain = 0
KBY1 132044Z 06003KT 33/18 A3009 RMK A01 T03260183  RH  043%=      5-min Rain = 0
KBY1 132045Z 05006KT 33/18 A3009 RMK A01 T03260182  RH  042%=      5-min Rain = 0
KBY1 132046Z 07009KT 33/18 A3009 RMK A01 T03270184  RH  043%=      5-min Rain = 0
KBY1 132047Z 06009KT 33/19 A3009 RMK A01 T03280185  RH  043%=      5-min Rain = 0
KBY1 132048Z 05007KT 33/18 A3009 RMK A01 T03300184  RH  042%=      5-min Rain = 0
KBY1 132049Z 08008G13KT 33/19 A3009 RMK A01 T03310185  RH  042%=      5-min Rain = 0
KBY1 132050Z 09011KT 33/18 A3009 RMK A01 T03310182  RH  041%=      5-min Rain = 0
KBY1 132051Z 09009KT 33/19 A3009 RMK A01 T03290186  RH  043%=      5-min Rain = 0
KBY1 132052Z 12009KT 33/18 A3009 RMK A01 T03300184  RH  042%=      5-min Rain = 0
KBY1 132053Z 11008KT 33/19 A3009 RMK A01 T03300185  RH  042%=      5-min Rain = 0
KBY1 132054Z 12009KT 33/19 A3009 RMK A01 T03310186  RH  042%=      5-min Rain = 0
KBY1 132055Z 11010KT 33/19 A3008 RMK A01 T03320185  RH  042%=      5-min Rain = 0
KBY1 132056Z 12006KT 33/18 A3008 RMK A01 T03320181  RH  041%=      5-min Rain = 0
KBY1 132057Z 10005KT 33/18 A3008 RMK A01 T03300181  RH  041%=      5-min Rain = 0
KBY1 132058Z 10002KT 33/18 A3008 RMK A01 T03290179  RH  041%=      5-min Rain = 0
KBY1 132059Z 11005G10KT 33/18 A3008 RMK A01 T03290183  RH  042%=      5-min Rain = 0
KBY1 132100Z 09009KT 33/18 A3008 RMK A01 T03330184  RH  041%=      5-min Rain = 0
KBY1 132101Z 08008KT 33/18 A3008 RMK A01 T03330182  RH  041%=      5-min Rain = 0
KBY1 132102Z 09011KT 33/18 A3008 RMK A01 T03330183  RH  041%=      5-min Rain = 0
KBY1 132103Z 10010KT 33/18 A3008 RMK A01 T03330179  RH  040%=      5-min Rain = 0
KBY1 132104Z 10010KT 33/18 A3008 RMK A01 T03320177  RH  040%=      5-min Rain = 0
KBY1 132105Z 10012KT 33/18 A3008 RMK A01 T03320175  RH  039%=      5-min Rain = 0
KBY1 132106Z 10010KT 33/17 A3008 RMK A01 T03310174  RH  039%=      5-min Rain = 0
KBY1 132107Z 10008KT 33/18 A3008 RMK A01 T03300176  RH  040%=      5-min Rain = 0
KBY1 132108Z 07010KT 33/18 A3008 RMK A01 T03310178  RH  040%=      5-min Rain = 0
KBY1 132109Z 07008KT 33/18 A3008 RMK A01 T03320179  RH  040%=      5-min Rain = 0
KBY1 132110Z 09007KT 34/18 A3008 RMK A01 T03350183  RH  041%=      5-min Rain = 0
KBY1 132111Z 09007KT 34/18 A3008 RMK A01 T03370177  RH  039%=      5-min Rain = 0
KBY1 132112Z 13010KT 34/18 A3008 RMK A01 T03350177  RH  039%=      5-min Rain = 0
KBY1 132113Z 13009KT 34/17 A3008 RMK A01 T03350170  RH  037%=      5-min Rain = 0
KBY1 132114Z 13010KT 34/17 A3008 RMK A01 T03350172  RH  038%=      5-min Rain = 0
KBY1 132115Z 12009KT 33/17 A3008 RMK A01 T03340171  RH  038%=      5-min Rain = 0
KBY1 132116Z 10007KT 33/17 A3008 RMK A01 T03340171  RH  038%=      5-min Rain = 0
KBY1 132117Z 10005KT 33/17 A3008 RMK A01 T03330172  RH  038%=      5-min Rain = 0
KBY1 132118Z 10005KT 33/17 A3008 RMK A01 T03320172  RH  039%=      5-min Rain = 0
KBY1 132119Z 09007KT 33/17 A3008 RMK A01 T03320173  RH  039%=      5-min Rain = 0
KBY1 132120Z 09009KT 33/17 A3007 RMK A01 T03340171  RH  038%=      5-min Rain = 0
KBY1 132121Z 09009KT 34/18 A3007 RMK A01 T03350175  RH  038%=      5-min Rain = 0
KBY1 132122Z 08008KT 34/17 A3007 RMK A01 T03370174  RH  038%=      5-min Rain = 0
KBY1 132123Z 12006KT 34/18 A3007 RMK A01 T03370177  RH  038%=      5-min Rain = 0
KBY1 132124Z 10011KT 34/18 A3007 RMK A01 T03410179  RH  038%=      5-min Rain = 0
KBY1 132125Z 10013KT 34/17 A3007 RMK A01 T03400173  RH  037%=      5-min Rain = 0
KBY1 132126Z 09012KT 34/17 A3007 RMK A01 T03350171  RH  038%=      5-min Rain = 0
KBY1 132127Z 09009KT 33/17 A3007 RMK A01 T03340172  RH  038%=      5-min Rain = 0
KBY1 132128Z 10009KT 33/17 A3007 RMK A01 T03330171  RH  038%=      5-min Rain = 0
KBY1 132129Z 11008KT 33/17 A3007 RMK A01 T03340171  RH  038%=      5-min Rain = 0
KBY1 132130Z 11007KT 33/18 A3007 RMK A01 T03340175  RH  039%=      5-min Rain = 0
KBY1 132131Z 10006KT 34/17 A3007 RMK A01 T03360173  RH  038%=      5-min Rain = 0
KBY1 132132Z 13010KT 34/17 A3007 RMK A01 T03360174  RH  038%=      5-min Rain = 0
KBY1 132133Z 13008KT 34/18 A3007 RMK A01 T03370175  RH  038%=      5-min Rain = 0
KBY1 132134Z 14007KT 34/18 A3007 RMK A01 T03370176  RH  038%=      5-min Rain = 0
KBY1 132135Z 13004KT 34/17 A3007 RMK A01 T03390170  RH  037%=      5-min Rain = 0
KBY1 132136Z 18005KT 34/17 A3007 RMK A01 T03370172  RH  038%=      5-min Rain = 0
KBY1 132137Z 15008KT 34/17 A3007 RMK A01 T03370174  RH  038%=      5-min Rain = 0
KBY1 132138Z 15010KT 34/17 A3007 RMK A01 T03380170  RH  037%=      5-min Rain = 0
KBY1 132139Z 17010KT 34/17 A3007 RMK A01 T03380172  RH  037%=      5-min Rain = 0
KBY1 132140Z 16010KT 34/17 A3007 RMK A01 T03360171  RH  037%=      5-min Rain = 0
KBY1 132141Z 16008KT 34/17 A3007 RMK A01 T03350171  RH  038%=      5-min Rain = 0
KBY1 132142Z 16008G13KT 34/17 A3007 RMK A01 T03350172  RH  038%=      5-min Rain = 0
KBY1 132143Z 16009KT 34/17 A3007 RMK A01 T03380169  RH  037%=      5-min Rain = 0
KBY1 132144Z 17009KT 34/17 A3006 RMK A01 T03380172  RH  037%=      5-min Rain = 0
KBY1 132145Z 16008KT 34/17 A3007 RMK A01 T03380171  RH  037%=      5-min Rain = 0
KBY1 132146Z 13008KT 34/17 A3007 RMK A01 T03370174  RH  038%=      5-min Rain = 0
KBY1 132147Z 13008KT 34/18 A3007 RMK A01 T03390176  RH  038%=      5-min Rain = 0
KBY1 132148Z 13008KT 34/18 A3007 RMK A01 T03400175  RH  038%=      5-min Rain = 0
KBY1 132149Z 11009KT 34/18 A3007 RMK A01 T03390176  RH  038%=      5-min Rain = 0
KBY1 132150Z 08005KT 34/17 A3006 RMK A01 T03380174  RH  038%=      5-min Rain = 0
KBY1 132151Z 08004KT 34/18 A3006 RMK A01 T03370178  RH  039%=      5-min Rain = 0
KBY1 132152Z 11004KT 34/17 A3006 RMK A01 T03380174  RH  038%=      5-min Rain = 0
KBY1 132153Z 14007G12KT 34/18 A3006 RMK A01 T03370176  RH  038%=      5-min Rain = 0
KBY1 132154Z 14008KT 34/17 A3006 RMK A01 T03370170  RH  037%=      5-min Rain = 0
KBY1 132155Z 15009KT 34/17 A3006 RMK A01 T03370170  RH  037%=      5-min Rain = 0
KBY1 132156Z 15006KT 34/17 A3006 RMK A01 T03360171  RH  038%=      5-min Rain = 0
KBY1 132157Z 14008KT 34/17 A3006 RMK A01 T03380173  RH  037%=      5-min Rain = 0
KBY1 132158Z 15008KT 34/17 A3006 RMK A01 T03400171  RH  037%=      5-min Rain = 0
KBY1 132159Z 15007KT 34/17 A3006 RMK A01 T03390174  RH  037%=      5-min Rain = 0
KBY1 132200Z 16009KT 34/17 A3006 RMK A01 T03400172  RH  037%=      5-min Rain = 0
KBY1 132201Z 17009KT 34/17 A3006 RMK A01 T03410171  RH  036%=      5-min Rain = 0
KBY1 132202Z 14008KT 34/17 A3006 RMK A01 T03420173  RH  037%=      5-min Rain = 0
KBY1 132203Z 11006KT 34/17 A3006 RMK A01 T03410174  RH  037%=      5-min Rain = 0
KBY1 132204Z 14005KT 34/17 A3006 RMK A01 T03400174  RH  037%=      5-min Rain = 0
KBY1 132205Z 13005KT 34/18 A3006 RMK A01 T03410175  RH  037%=      5-min Rain = 0
KBY1 132206Z 11011KT 34/18 A3006 RMK A01 T03440178  RH  038%=      5-min Rain = 0
KBY1 132207Z 11008KT 34/18 A3006 RMK A01 T03440181  RH  038%=      5-min Rain = 0
KBY1 132208Z 10010KT 34/18 A3006 RMK A01 T03440177  RH  037%=      5-min Rain = 0
KBY1 132209Z 09009KT 34/18 A3005 RMK A01 T03400176  RH  038%=      5-min Rain = 0
KBY1 132210Z 08010KT 34/18 A3005 RMK A01 T03380178  RH  039%=      5-min Rain = 0
KBY1 132211Z 09009KT 34/18 A3005 RMK A01 T03370177  RH  039%=      5-min Rain = 0
KBY1 132212Z 11012KT 34/18 A3006 RMK A01 T03370178  RH  039%=      5-min Rain = 0
KBY1 132213Z 11008KT 34/18 A3005 RMK A01 T03390176  RH  038%=      5-min Rain = 0
KBY1 132214Z 12005KT 34/17 A3005 RMK A01 T03380172  RH  037%=      5-min Rain = 0
KBY1 132215Z 15006KT 34/18 A3005 RMK A01 T03370176  RH  038%=      5-min Rain = 0
KBY1 132216Z 15009G14KT 34/18 A3005 RMK A01 T03400176  RH  038%=      5-min Rain = 0
KBY1 132217Z 14010KT 34/18 A3006 RMK A01 T03410175  RH  037%=      5-min Rain = 0
KBY1 132218Z 14007G12KT 34/17 A3006 RMK A01 T03400172  RH  037%=      5-min Rain = 0
KBY1 132219Z 12010KT 34/17 A3006 RMK A01 T03360169  RH  037%=      5-min Rain = 0
KBY1 132220Z 13009KT 34/17 A3006 RMK A01 T03350167  RH  037%=      5-min Rain = 0
KBY1 132221Z 13008KT 34/16 A3006 RMK A01 T03360164  RH  036%=      5-min Rain = 0
KBY1 132222Z 12008KT 34/16 A3006 RMK A01 T03370164  RH  036%=      5-min Rain = 0
KBY1 132223Z 12007KT 34/16 A3006 RMK A01 T03370163  RH  035%=      5-min Rain = 0
KBY1 132224Z 12005KT 34/17 A3006 RMK A01 T03360167  RH  036%=      5-min Rain = 0
KBY1 132225Z 10008KT 34/17 A3006 RMK A01 T03360169  RH  037%=      5-min Rain = 0
KBY1 132226Z 12007KT 34/17 A3006 RMK A01 T03380174  RH  038%=      5-min Rain = 0
KBY1 132227Z 09008KT 34/17 A3006 RMK A01 T03420174  RH  037%=      5-min Rain = 0
KBY1 132228Z 09006KT 34/18 A3006 RMK A01 T03420176  RH  037%=      5-min Rain = 0
KBY1 132229Z 10009KT 34/18 A3006 RMK A01 T03420175  RH  037%=      5-min Rain = 0
KBY1 132230Z 09007KT 34/18 A3006 RMK A01 T03400175  RH  038%=      5-min Rain = 0
KBY1 132231Z 10011KT 34/17 A3006 RMK A01 T03390173  RH  037%=      5-min Rain = 0
KBY1 132232Z 10011KT 34/17 A3006 RMK A01 T03390167  RH  036%=      5-min Rain = 0
KBY1 132233Z 10011KT 34/17 A3006 RMK A01 T03380167  RH  036%=      5-min Rain = 0
KBY1 132234Z 10010KT 34/17 A3006 RMK A01 T03370169  RH  037%=      5-min Rain = 0
KBY1 132235Z 12007KT 34/17 A3006 RMK A01 T03380166  RH  036%=      5-min Rain = 0
KBY1 132236Z 13008KT 34/17 A3006 RMK A01 T03390165  RH  036%=      5-min Rain = 0
KBY1 132237Z 12011KT 34/17 A3006 RMK A01 T03400165  RH  035%=      5-min Rain = 0
KBY1 132238Z 11010KT 34/16 A3006 RMK A01 T03400163  RH  035%=      5-min Rain = 0
KBY1 132239Z 10010G15KT 34/17 A3006 RMK A01 T03380167  RH  036%=      5-min Rain = 0
KBY1 132240Z 10010KT 34/17 A3006 RMK A01 T03380166  RH  036%=      5-min Rain = 0
KBY1 132241Z 10010KT 34/17 A3006 RMK A01 T03380168  RH  036%=      5-min Rain = 0
KBY1 132242Z 10010KT 34/17 A3007 RMK A01 T03380170  RH  037%=      5-min Rain = 0
KBY1 132243Z 11008KT 34/17 A3006 RMK A01 T03380167  RH  036%=      5-min Rain = 0
KBY1 132244Z 10008KT 34/17 A3006 RMK A01 T03380169  RH  037%=      5-min Rain = 0
KBY1 132245Z 09008KT 34/17 A3006 RMK A01 T03380165  RH  036%=      5-min Rain = 0
KBY1 132246Z 08008KT 34/17 A3006 RMK A01 T03360167  RH  036%=      5-min Rain = 0
KBY1 132247Z 10008KT 34/17 A3006 RMK A01 T03360167  RH  036%=      5-min Rain = 0
KBY1 132248Z 11007KT 34/16 A3006 RMK A01 T03370163  RH  035%=      5-min Rain = 0
KBY1 132249Z 10008G13KT 34/17 A3006 RMK A01 T03360166  RH  036%=      5-min Rain = 0
KBY1 132250Z 12012KT 34/17 A3007 RMK A01 T03360167  RH  036%=      5-min Rain = 0
KBY1 132251Z 11012KT 34/17 A3007 RMK A01 T03370167  RH  036%=      5-min Rain = 0
KBY1 132252Z 10010KT 34/17 A3007 RMK A01 T03370167  RH  036%=      5-min Rain = 0
KBY1 132253Z 10012KT 34/17 A3007 RMK A01 T03360166  RH  036%=      5-min Rain = 0
KBY1 132254Z 10010KT 34/16 A3007 RMK A01 T03370163  RH  035%=      5-min Rain = 0
KBY1 132255Z 10010KT 34/16 A3006 RMK A01 T03360163  RH  036%=      5-min Rain = 0
KBY1 132256Z 09008KT 34/17 A3006 RMK A01 T03360165  RH  036%=      5-min Rain = 0
KBY1 132257Z 08007KT 34/17 A3006 RMK A01 T03360165  RH  036%=      5-min Rain = 0
KBY1 132258Z 09006KT 34/17 A3006 RMK A01 T03360167  RH  037%=      5-min Rain = 0
KBY1 132259Z 10006KT 34/16 A3006 RMK A01 T03360162  RH  035%=      5-min Rain = 0
KBY1 132300Z 10005KT 34/17 A3006 RMK A01 T03360167  RH  036%=      5-min Rain = 0
KBY1 132301Z 11007KT 34/17 A3006 RMK A01 T03380165  RH  036%=      5-min Rain = 0
KBY1 132302Z 12008KT 34/17 A3006 RMK A01 T03390166  RH  036%=      5-min Rain = 0
KBY1 132303Z 10008KT 34/16 A3006 RMK A01 T03400163  RH  035%=      5-min Rain = 0
KBY1 132304Z 11008KT 34/16 A3007 RMK A01 T03390162  RH  035%=      5-min Rain = 0
KBY1 132305Z 11009KT 34/17 A3007 RMK A01 T03380165  RH  035%=      5-min Rain = 0
KBY1 132306Z 10011KT 34/16 A3007 RMK A01 T03390161  RH  035%=      5-min Rain = 0
KBY1 132307Z 10010KT 34/16 A3007 RMK A01 T03370160  RH  035%=      5-min Rain = 0
KBY1 132308Z 10009KT 34/16 A3007 RMK A01 T03360163  RH  036%=      5-min Rain = 0
KBY1 132309Z 11009KT 34/16 A3007 RMK A01 T03360156  RH  034%=      5-min Rain = 0
KBY1 132310Z 09011KT 34/16 A3007 RMK A01 T03370156  RH  034%=      5-min Rain = 0
KBY1 132311Z 09011KT 34/15 A3007 RMK A01 T03370152  RH  033%=      5-min Rain = 0
KBY1 132312Z 09007KT 34/15 A3007 RMK A01 T03360152  RH  033%=      5-min Rain = 0
KBY1 132313Z 10005KT 34/15 A3007 RMK A01 T03350152  RH  033%=      5-min Rain = 0
KBY1 132314Z 07006KT 34/16 A3007 RMK A01 T03350155  RH  034%=      5-min Rain = 0
KBY1 132315Z 08005KT 34/16 A3007 RMK A01 T03350155  RH  034%=      5-min Rain = 0
KBY1 132316Z 09005KT 34/16 A3007 RMK A01 T03350157  RH  034%=      5-min Rain = 0
KBY1 132317Z 07008KT 34/16 A3007 RMK A01 T03350159  RH  035%=      5-min Rain = 0
KBY1 132318Z 08008KT 33/16 A3007 RMK A01 T03340160  RH  035%=      5-min Rain = 0
KBY1 132319Z 09006KT 34/17 A3007 RMK A01 T03350166  RH  036%=      5-min Rain = 0
KBY1 132320Z 10011KT 34/17 A3007 RMK A01 T03370165  RH  036%=      5-min Rain = 0
KBY1 132321Z 10007KT 34/16 A3007 RMK A01 T03370158  RH  034%=      5-min Rain = 0
KBY1 132322Z 09008KT 34/16 A3007 RMK A01 T03360163  RH  036%=      5-min Rain = 0
KBY1 132323Z 10010KT 34/16 A3007 RMK A01 T03370163  RH  035%=      5-min Rain = 0
KBY1 132324Z 12010KT 34/16 A3007 RMK A01 T03380157  RH  034%=      5-min Rain = 0
KBY1 132325Z 11009KT 34/15 A3007 RMK A01 T03380149  RH  032%=      5-min Rain = 0
KBY1 132326Z 11010KT 34/15 A3007 RMK A01 T03370153  RH  033%=      5-min Rain = 0
KBY1 132327Z 11008KT 34/15 A3007 RMK A01 T03360151  RH  033%=      5-min Rain = 0
KBY1 132328Z 11008KT 34/15 A3007 RMK A01 T03350153  RH  033%=      5-min Rain = 0
KBY1 132329Z 12008KT 34/15 A3007 RMK A01 T03350152  RH  033%=      5-min Rain = 0
KBY1 132330Z 13005KT 34/15 A3007 RMK A01 T03350154  RH  034%=      5-min Rain = 0
KBY1 132331Z 11005KT 34/16 A3007 RMK A01 T03370158  RH  034%=      5-min Rain = 0
KBY1 132332Z 12007KT 34/16 A3007 RMK A01 T03390156  RH  034%=      5-min Rain = 0
KBY1 132333Z 13009KT 34/16 A3007 RMK A01 T03380159  RH  034%=      5-min Rain = 0
KBY1 132334Z 11008KT 34/16 A3007 RMK A01 T03370159  RH  034%=      5-min Rain = 0
KBY1 132335Z 10006KT 34/16 A3007 RMK A01 T03350158  RH  035%=      5-min Rain = 0
KBY1 132336Z 11007G12KT 33/16 A3007 RMK A01 T03340163  RH  036%=      5-min Rain = 0
KBY1 132337Z 08010KT 34/16 A3007 RMK A01 T03350164  RH  036%=      5-min Rain = 0
KBY1 132338Z 08011KT 34/16 A3007 RMK A01 T03350164  RH  036%=      5-min Rain = 0
KBY1 132339Z 08009KT 33/16 A3007 RMK A01 T03330163  RH  036%=      5-min Rain = 0
KBY1 132340Z 08008KT 33/17 A3007 RMK A01 T03330165  RH  037%=      5-min Rain = 0
KBY1 132341Z 08007KT 33/16 A3007 RMK A01 T03330164  RH  036%=      5-min Rain = 0
KBY1 132342Z 08007KT 33/16 A3007 RMK A01 T03330161  RH  036%=      5-min Rain = 0
KBY1 132343Z 08007KT 33/16 A3007 RMK A01 T03320161  RH  036%=      5-min Rain = 0
KBY1 132344Z 10006KT 33/16 A3007 RMK A01 T03310160  RH  036%=      5-min Rain = 0
KBY1 132345Z 10007KT 33/16 A3007 RMK A01 T03310162  RH  036%=      5-min Rain = 0
KBY1 132346Z 10008KT 33/17 A3007 RMK A01 T03320165  RH  037%=      5-min Rain = 0
KBY1 132347Z 11010KT 33/16 A3007 RMK A01 T03320164  RH  037%=      5-min Rain = 0
KBY1 132348Z 09008KT 33/17 A3007 RMK A01 T03320167  RH  037%=      5-min Rain = 0
KBY1 132349Z 08010KT 33/17 A3007 RMK A01 T03310169  RH  038%=      5-min Rain = 0
KBY1 132350Z 08009KT 33/17 A3007 RMK A01 T03320166  RH  037%=      5-min Rain = 0
KBY1 132351Z 08009KT 33/16 A3007 RMK A01 T03310164  RH  037%=      5-min Rain = 0
KBY1 132352Z 08007KT 33/16 A3007 RMK A01 T03290163  RH  037%=      5-min Rain = 0
KBY1 132353Z 08007KT 33/17 A3007 RMK A01 T03290165  RH  037%=      5-min Rain = 0
KBY1 132354Z 09005KT 33/17 A3007 RMK A01 T03290168  RH  038%=      5-min Rain = 0
KBY1 132355Z 08009KT 33/17 A3007 RMK A01 T03310168  RH  038%=      5-min Rain = 0
KBY1 132356Z 08009KT 33/16 A3007 RMK A01 T03320163  RH  036%=      5-min Rain = 0
KBY1 132357Z 09009KT 33/16 A3007 RMK A01 T03310162  RH  036%=      5-min Rain = 0
KBY1 132358Z 09007KT 33/16 A3007 RMK A01 T03300161  RH  036%=      5-min Rain = 0
KBY1 132359Z 09008KT 33/16 A3007 RMK A01 T03300161  RH  036%=      5-min Rain = 0
KBY1 140000Z 08007KT 33/16 A3007 RMK A01 T03300161  RH  036%=      5-min Rain = 0
KBY1 140001Z 08007KT 33/16 A3007 RMK A01 T03290161  RH  036%=      5-min Rain = 0
KBY1 140002Z 07008KT 33/16 A3007 RMK A01 T03290159  RH  036%=      5-min Rain = 0
KBY1 140003Z 09006KT 33/16 A3007 RMK A01 T03290160  RH  036%=      5-min Rain = 0
KBY1 140004Z 09008KT 33/16 A3007 RMK A01 T03290161  RH  036%=      5-min Rain = 0
KBY1 140005Z 09011KT 33/16 A3007 RMK A01 T03300159  RH  036%=      5-min Rain = 0
KBY1 140006Z 09009KT 33/16 A3007 RMK A01 T03290159  RH  036%=      5-min Rain = 0
KBY1 140007Z 10008KT 33/16 A3007 RMK A01 T03290161  RH  037%=      5-min Rain = 0
KBY1 140008Z 08008KT 33/16 A3006 RMK A01 T03290162  RH  037%=      5-min Rain = 0
KBY1 140009Z 09009KT 33/16 A3006 RMK A01 T03290160  RH  036%=      5-min Rain = 0
KBY1 140010Z 11008KT 33/16 A3006 RMK A01 T03290160  RH  036%=      5-min Rain = 0
KBY1 140011Z 10008KT 33/16 A3006 RMK A01 T03290159  RH  036%=      5-min Rain = 0
KBY1 140012Z 09007KT 33/16 A3006 RMK A01 T03290160  RH  036%=      5-min Rain = 0
KBY1 140013Z 09008KT 33/16 A3006 RMK A01 T03280162  RH  037%=      5-min Rain = 0
KBY1 140014Z 09009KT 33/16 A3006 RMK A01 T03280162  RH  037%=      5-min Rain = 0
KBY1 140015Z 09008KT 33/16 A3006 RMK A01 T03280163  RH  037%=      5-min Rain = 0
KBY1 140016Z 09008KT 33/16 A3006 RMK A01 T03280163  RH  037%=      5-min Rain = 0
KBY1 140017Z 11008KT 33/16 A3006 RMK A01 T03280163  RH  037%=      5-min Rain = 0
KBY1 140018Z 10008KT 33/16 A3006 RMK A01 T03280162  RH  037%=      5-min Rain = 0
KBY1 140019Z 10008KT 33/16 A3006 RMK A01 T03270162  RH  037%=      5-min Rain = 0
KBY1 140020Z 10007KT 33/16 A3006 RMK A01 T03270162  RH  037%=      5-min Rain = 0
KBY1 140021Z 10006KT 33/16 A3006 RMK A01 T03260163  RH  038%=      5-min Rain = 0
KBY1 140022Z 10009KT 33/16 A3006 RMK A01 T03260162  RH  037%=      5-min Rain = 0
KBY1 140023Z 08008G14KT 33/16 A3007 RMK A01 T03260163  RH  038%=      5-min Rain = 0
KBY1 140024Z 09009KT 33/16 A3007 RMK A01 T03250163  RH  038%=      5-min Rain = 0
KBY1 140025Z 10008KT 33/16 A3007 RMK A01 T03260161  RH  037%=      5-min Rain = 0
KBY1 140026Z 09007KT 33/16 A3007 RMK A01 T03250159  RH  037%=      5-min Rain = 0
KBY1 140027Z 07009KT 33/16 A3007 RMK A01 T03250162  RH  038%=      5-min Rain = 0
KBY1 140028Z 08010KT 32/16 A3007 RMK A01 T03240162  RH  038%=      5-min Rain = 0
KBY1 140029Z 07008KT 32/16 A3007 RMK A01 T03240163  RH  038%=      5-min Rain = 0
KBY1 140030Z 07009KT 32/16 A3007 RMK A01 T03230163  RH  038%=      5-min Rain = 0
KBY1 140031Z 07009KT 32/16 A3007 RMK A01 T03230160  RH  037%=      5-min Rain = 0
KBY1 140032Z 07008KT 32/16 A3006 RMK A01 T03230162  RH  038%=      5-min Rain = 0
KBY1 140033Z 08009KT 32/16 A3006 RMK A01 T03230162  RH  038%=      5-min Rain = 0
KBY1 140034Z 09008KT 32/16 A3006 RMK A01 T03230164  RH  039%=      5-min Rain = 0
KBY1 140035Z 10007KT 32/17 A3006 RMK A01 T03220166  RH  039%=      5-min Rain = 0
KBY1 140036Z 10007KT 32/17 A3006 RMK A01 T03220167  RH  039%=      5-min Rain = 0
KBY1 140037Z 10005KT 32/17 A3006 RMK A01 T03220169  RH  040%=      5-min Rain = 0
KBY1 140038Z 11006KT 32/17 A3006 RMK A01 T03220168  RH  040%=      5-min Rain = 0
KBY1 140039Z 11006KT 32/17 A3006 RMK A01 T03230167  RH  039%=      5-min Rain = 0
KBY1 140040Z 10006KT 32/16 A3006 RMK A01 T03230163  RH  038%=      5-min Rain = 0
KBY1 140041Z 10007KT 32/16 A3006 RMK A01 T03220163  RH  039%=      5-min Rain = 0
KBY1 140042Z 09007KT 32/17 A3006 RMK A01 T03220166  RH  039%=      5-min Rain = 0
KBY1 140043Z 10008KT 32/17 A3006 RMK A01 T03210167  RH  040%=      5-min Rain = 0
KBY1 140044Z 11007KT 32/17 A3006 RMK A01 T03210166  RH  040%=      5-min Rain = 0
KBY1 140045Z 11006KT 32/17 A3006 RMK A01 T03210168  RH  040%=      5-min Rain = 0
KBY1 140046Z 11006KT 32/17 A3006 RMK A01 T03210169  RH  040%=      5-min Rain = 0
KBY1 140047Z 10008KT 32/17 A3007 RMK A01 T03200170  RH  041%=      5-min Rain = 0
KBY1 140048Z 10007KT 32/17 A3007 RMK A01 T03200171  RH  041%=      5-min Rain = 0
KBY1 140049Z 10006KT 32/17 A3007 RMK A01 T03200172  RH  041%=      5-min Rain = 0
KBY1 140050Z 10006KT 32/17 A3007 RMK A01 T03190172  RH  041%=      5-min Rain = 0
KBY1 140051Z 10007KT 32/17 A3007 RMK A01 T03180172  RH  042%=      5-min Rain = 0
KBY1 140052Z 09006KT 32/17 A3007 RMK A01 T03170174  RH  042%=      5-min Rain = 0
KBY1 140053Z 09007KT 32/17 A3007 RMK A01 T03160172  RH  042%=      5-min Rain = 0
KBY1 140054Z 09008KT 32/17 A3007 RMK A01 T03150170  RH  042%=      5-min Rain = 0
KBY1 140055Z 09008KT 31/17 A3007 RMK A01 T03140172  RH  043%=      5-min Rain = 0
KBY1 140056Z 10008KT 31/17 A3007 RMK A01 T03130170  RH  042%=      5-min Rain = 0
KBY1 140057Z 10006KT 31/17 A3007 RMK A01 T03120171  RH  043%=      5-min Rain = 0
KBY1 140058Z 10007KT 31/17 A3007 RMK A01 T03100171  RH  043%=      5-min Rain = 0
KBY1 140059Z 10007KT 31/17 A3006 RMK A01 T03090170  RH  043%=      5-min Rain = 0
KBY1 140100Z 10007KT 31/17 A3006 RMK A01 T03080171  RH  044%=      5-min Rain = 0
KBY1 140101Z 09007KT 31/17 A3006 RMK A01 T03070170  RH  044%=      5-min Rain = 0
KBY1 140102Z 09007KT 31/17 A3006 RMK A01 T03060171  RH  044%=      5-min Rain = 0
KBY1 140103Z 09007KT 31/17 A3006 RMK A01 T03050170  RH  044%=      5-min Rain = 0
KBY1 140104Z 09006KT 30/17 A3006 RMK A01 T03040171  RH  045%=      5-min Rain = 0
KBY1 140105Z 10007KT 30/17 A3006 RMK A01 T03030171  RH  045%=      5-min Rain = 0
KBY1 140106Z 10007KT 30/17 A3006 RMK A01 T03020172  RH  045%=      5-min Rain = 0
KBY1 140107Z 10008KT 30/17 A3006 RMK A01 T03020171  RH  046%=      5-min Rain = 0
KBY1 140108Z 09006KT 30/17 A3006 RMK A01 T03010171  RH  046%=      5-min Rain = 0
KBY1 140109Z 09008KT 30/17 A3006 RMK A01 T03010172  RH  046%=      5-min Rain = 0
KBY1 140110Z 09006KT 30/17 A3007 RMK A01 T03000172  RH  046%=      5-min Rain = 0
KBY1 140111Z 09007KT 30/17 A3007 RMK A01 T03000172  RH  046%=      5-min Rain = 0
KBY1 140112Z 08006KT 30/17 A3007 RMK A01 T02990172  RH  046%=      5-min Rain = 0
KBY1 140113Z 08006KT 30/17 A3007 RMK A01 T02980172  RH  047%=      5-min Rain = 0
KBY1 140114Z 07006KT 30/17 A3007 RMK A01 T02980172  RH  047%=      5-min Rain = 0
KBY1 140115Z 07006KT 30/17 A3007 RMK A01 T02970172  RH  047%=      5-min Rain = 0
KBY1 140116Z 08006KT 30/17 A3008 RMK A01 T02970171  RH  047%=      5-min Rain = 0
KBY1 140117Z 07006KT 30/17 A3008 RMK A01 T02970171  RH  047%=      5-min Rain = 0
KBY1 140118Z 07006KT 30/17 A3008 RMK A01 T02970171  RH  047%=      5-min Rain = 0
KBY1 140119Z 07006KT 30/17 A3008 RMK A01 T02970168  RH  046%=      5-min Rain = 0
KBY1 140120Z 07006KT 30/17 A3008 RMK A01 T02970169  RH  046%=      5-min Rain = 0
KBY1 140121Z 07006KT 30/17 A3008 RMK A01 T02970170  RH  046%=      5-min Rain = 0
KBY1 140122Z 07006KT 30/17 A3008 RMK A01 T02960169  RH  046%=      5-min Rain = 0
KBY1 140123Z 07006KT 30/17 A3008 RMK A01 T02960170  RH  047%=      5-min Rain = 0
KBY1 140124Z 07006KT 30/17 A3008 RMK A01 T02960169  RH  046%=      5-min Rain = 0
KBY1 140125Z 08006KT 30/17 A3008 RMK A01 T02950168  RH  046%=      5-min Rain = 0
KBY1 140126Z 08006KT 30/17 A3008 RMK A01 T02960169  RH  046%=      5-min Rain = 0
KBY1 140127Z 07006KT 30/17 A3008 RMK A01 T02950170  RH  047%=      5-min Rain = 0
KBY1 140128Z 08005KT 30/17 A3009 RMK A01 T02950169  RH  047%=      5-min Rain = 0
KBY1 140129Z 07005KT 30/17 A3009 RMK A01 T02950170  RH  047%=      5-min Rain = 0
KBY1 140130Z 07005KT 29/17 A3009 RMK A01 T02940171  RH  048%=      5-min Rain = 0
KBY1 140131Z 07005KT 29/17 A3009 RMK A01 T02930171  RH  048%=      5-min Rain = 0
KBY1 140132Z 07005KT 29/17 A3009 RMK A01 T02920170  RH  048%=      5-min Rain = 0
KBY1 140133Z 06005KT 29/17 A3009 RMK A01 T02920170  RH  048%=      5-min Rain = 0
KBY1 140134Z 07005KT 29/17 A3009 RMK A01 T02920170  RH  048%=      5-min Rain = 0
KBY1 140135Z 06005KT 29/17 A3009 RMK A01 T02920170  RH  048%=      5-min Rain = 0
KBY1 140136Z 06005KT 29/17 A301 RMK A01 T02920170  RH  048%=      5-min Rain = 0
KBY1 140137Z 05005KT 29/17 A301 RMK A01 T02920171  RH  048%=      5-min Rain = 0
KBY1 140138Z 05005KT 29/17 A301 RMK A01 T02910171  RH  048%=      5-min Rain = 0
KBY1 140139Z 06005KT 29/17 A301 RMK A01 T02910171  RH  048%=      5-min Rain = 0
KBY1 140140Z 05005KT 29/17 A301 RMK A01 T02910170  RH  048%=      5-min Rain = 0
KBY1 140141Z 05004KT 29/17 A301 RMK A01 T02900170  RH  048%=      5-min Rain = 0
KBY1 140142Z 06005KT 29/17 A301 RMK A01 T02900170  RH  048%=      5-min Rain = 0
KBY1 140143Z 06005KT 29/17 A301 RMK A01 T02900169  RH  048%=      5-min Rain = 0
KBY1 140144Z 06005KT 29/17 A301 RMK A01 T02900170  RH  048%=      5-min Rain = 0
KBY1 140145Z 06004KT 29/17 A301 RMK A01 T02890171  RH  049%=      5-min Rain = 0
KBY1 140146Z 06005KT 29/17 A301 RMK A01 T02880172  RH  049%=      5-min Rain = 0
KBY1 140147Z 06004KT 29/17 A301 RMK A01 T02880170  RH  049%=      5-min Rain = 0
KBY1 140148Z 06004KT 29/17 A3011 RMK A01 T02880173  RH  050%=      5-min Rain = 0
KBY1 140149Z 06004KT 29/17 A3011 RMK A01 T02870172  RH  050%=      5-min Rain = 0
KBY1 140150Z 06004KT 29/17 A3011 RMK A01 T02870173  RH  050%=      5-min Rain = 0
KBY1 140151Z 07005KT 29/17 A3011 RMK A01 T02870172  RH  050%=      5-min Rain = 0
KBY1 140152Z 07003KT 29/17 A3011 RMK A01 T02860173  RH  050%=      5-min Rain = 0
KBY1 140153Z 07004KT 29/17 A3011 RMK A01 T02860174  RH  051%=      5-min Rain = 0
KBY1 140154Z 07004KT 29/18 A3011 RMK A01 T02850175  RH  051%=      5-min Rain = 0
KBY1 140155Z 06004KT 28/18 A3011 RMK A01 T02840175  RH  051%=      5-min Rain = 0
KBY1 140156Z 07004KT 28/17 A3011 RMK A01 T02840174  RH  052%=      5-min Rain = 0
KBY1 140157Z 06004KT 28/18 A3011 RMK A01 T02830175  RH  052%=      5-min Rain = 0
KBY1 140158Z 07005KT 28/18 A3011 RMK A01 T02820176  RH  052%=      5-min Rain = 0
KBY1 140159Z 06004KT 28/18 A3011 RMK A01 T02820176  RH  052%=      5-min Rain = 0
KBY1 140200Z 07004KT 28/18 A3011 RMK A01 T02810175  RH  053%=      5-min Rain = 0
KBY1 140201Z 07005KT 28/18 A3011 RMK A01 T02820177  RH  053%=      5-min Rain = 0
KBY1 140202Z 07005KT 28/18 A3011 RMK A01 T02810176  RH  053%=      5-min Rain = 0
KBY1 140203Z 08004KT 28/18 A3011 RMK A01 T02810176  RH  053%=      5-min Rain = 0
KBY1 140204Z 08004KT 28/18 A3011 RMK A01 T02800177  RH  053%=      5-min Rain = 0
KBY1 140205Z 08004KT 28/18 A3011 RMK A01 T02790177  RH  054%=      5-min Rain = 0
KBY1 140206Z 08004KT 28/18 A3011 RMK A01 T02780178  RH  054%=      5-min Rain = 0
KBY1 140207Z 09004KT 28/18 A3011 RMK A01 T02770178  RH  055%=      5-min Rain = 0
KBY1 140208Z 09004KT 28/18 A3011 RMK A01 T02770179  RH  055%=      5-min Rain = 0
KBY1 140209Z 10004KT 28/18 A3011 RMK A01 T02760179  RH  055%=      5-min Rain = 0
KBY1 140210Z 10004KT 28/18 A3011 RMK A01 T02750181  RH  056%=      5-min Rain = 0
KBY1 140211Z 10004KT 27/18 A3011 RMK A01 T02740181  RH  057%=      5-min Rain = 0
KBY1 140212Z 11004KT 27/18 A3011 RMK A01 T02730181  RH  057%=      5-min Rain = 0
KBY1 140213Z 12004KT 27/18 A3011 RMK A01 T02730181  RH  057%=      5-min Rain = 0
KBY1 140214Z 12005KT 27/18 A3011 RMK A01 T02720181  RH  058%=      5-min Rain = 0
KBY1 140215Z 12005KT 27/18 A3011 RMK A01 T02700181  RH  058%=      5-min Rain = 0
KBY1 140216Z 12005KT 27/18 A3011 RMK A01 T02690181  RH  058%=      5-min Rain = 0
KBY1 140217Z 13004KT 27/18 A3011 RMK A01 T02690181  RH  059%=      5-min Rain = 0
KBY1 140218Z 14003KT 27/18 A3012 RMK A01 T02680181  RH  059%=      5-min Rain = 0
KBY1 140219Z 14003KT 27/18 A3012 RMK A01 T02680181  RH  059%=      5-min Rain = 0
KBY1 140220Z 14003KT 27/18 A3012 RMK A01 T02670181  RH  059%=      5-min Rain = 0
KBY1 140221Z 15002KT 27/18 A3012 RMK A01 T02670180  RH  059%=      5-min Rain = 0
KBY1 140222Z 15001KT 27/18 A3012 RMK A01 T02670181  RH  059%=      5-min Rain = 0
KBY1 140223Z 17001KT 27/18 A3012 RMK A01 T02670181  RH  059%=      5-min Rain = 0
KBY1 140224Z 16001KT 27/18 A3012 RMK A01 T02660182  RH  060%=      5-min Rain = 0
KBY1 140225Z 15001KT 27/18 A3012 RMK A01 T02660183  RH  060%=      5-min Rain = 0
KBY1 140226Z 14002KT 27/18 A3012 RMK A01 T02660181  RH  060%=      5-min Rain = 0
KBY1 140227Z 13001KT 27/18 A3012 RMK A01 T02660183  RH  060%=      5-min Rain = 0
KBY1 140228Z 13002KT 27/19 A3012 RMK A01 T02660185  RH  061%=      5-min Rain = 0
KBY1 140229Z 12001KT 27/18 A3012 RMK A01 T02660183  RH  060%=      5-min Rain = 0
KBY1 140230Z 13002KT 27/18 A3012 RMK A01 T02660184  RH  061%=      5-min Rain = 0
KBY1 140231Z 12001KT 27/19 A3012 RMK A01 T02660190  RH  063%=      5-min Rain = 0
KBY1 140232Z 11002KT 27/19 A3012 RMK A01 T02650188  RH  062%=      5-min Rain = 0
KBY1 140233Z 13001KT 27/19 A3012 RMK A01 T02650187  RH  062%=      5-min Rain = 0
KBY1 140234Z 12002KT 26/19 A3012 RMK A01 T02640189  RH  063%=      5-min Rain = 0
KBY1 140235Z 14002KT 26/19 A3012 RMK A01 T02640191  RH  064%=      5-min Rain = 0
KBY1 140236Z 14002KT 26/18 A3012 RMK A01 T02640184  RH  062%=      5-min Rain = 0
KBY1 140237Z 14002KT 26/19 A3012 RMK A01 T02640189  RH  064%=      5-min Rain = 0
KBY1 140238Z 14003KT 26/19 A3011 RMK A01 T02640189  RH  063%=      5-min Rain = 0
KBY1 140239Z 14003KT 26/19 A3011 RMK A01 T02640194  RH  065%=      5-min Rain = 0
KBY1 140240Z 14004KT 26/20 A3011 RMK A01 T02630197  RH  067%=      5-min Rain = 0
KBY1 140241Z 13005KT 26/20 A3011 RMK A01 T02620198  RH  068%=      5-min Rain = 0
KBY1 140242Z 13006KT 26/19 A3011 RMK A01 T02610193  RH  066%=      5-min Rain = 0
KBY1 140243Z 13007KT 26/19 A301 RMK A01 T02610189  RH  065%=      5-min Rain = 0
KBY1 140244Z 12009KT 26/19 A301 RMK A01 T02610187  RH  064%=      5-min Rain = 0
KBY1 140245Z 12010KT 26/18 A3009 RMK A01 T02620184  RH  062%=      5-min Rain = 0
KBY1 140246Z 12011KT 26/18 A3009 RMK A01 T02630183  RH  061%=      5-min Rain = 0
KBY1 140247Z 12011KT 26/18 A3008 RMK A01 T02640183  RH  061%=      5-min Rain = 0
KBY1 140248Z 11012KT 27/18 A3008 RMK A01 T02650184  RH  061%=      5-min Rain = 0
KBY1 140249Z 11012KT 26/18 A3008 RMK A01 T02640182  RH  061%=      5-min Rain = 0
KBY1 140250Z 11011KT 27/18 A3008 RMK A01 T02650182  RH  060%=      5-min Rain = 0
KBY1 140251Z 11011KT 27/18 A3008 RMK A01 T02650183  RH  060%=      5-min Rain = 0
KBY1 140252Z 11011KT 27/18 A3008 RMK A01 T02650184  RH  061%=      5-min Rain = 0
KBY1 140253Z 11011KT 27/18 A3008 RMK A01 T02650184  RH  061%=      5-min Rain = 0
KBY1 140254Z 10010KT 27/18 A3008 RMK A01 T02650183  RH  061%=      5-min Rain = 0
KBY1 140255Z 10010KT 27/18 A3008 RMK A01 T02660182  RH  060%=      5-min Rain = 0
KBY1 140256Z 09007KT 27/18 A3009 RMK A01 T02670183  RH  060%=      5-min Rain = 0
KBY1 140257Z 09010KT 27/18 A3009 RMK A01 T02670184  RH  060%=      5-min Rain = 0
KBY1 140258Z 09008KT 27/18 A3009 RMK A01 T02670183  RH  060%=      5-min Rain = 0
KBY1 140259Z 10009KT 27/18 A3009 RMK A01 T02680184  RH  060%=      5-min Rain = 0
KBY1 140300Z 10009KT 27/18 A3009 RMK A01 T02680183  RH  060%=      5-min Rain = 0
KBY1 140301Z 10008KT 27/18 A3009 RMK A01 T02680182  RH  059%=      5-min Rain = 0
KBY1 140302Z 11009KT 27/18 A3009 RMK A01 T02690182  RH  059%=      5-min Rain = 0
KBY1 140303Z 10010KT 27/18 A301 RMK A01 T02700182  RH  058%=      5-min Rain = 0
KBY1 140304Z 10009KT 27/18 A301 RMK A01 T02710181  RH  058%=      5-min Rain = 0
KBY1 140305Z 10008KT 27/18 A301 RMK A01 T02710182  RH  058%=      5-min Rain = 0
KBY1 140306Z 10009KT 27/18 A301 RMK A01 T02720181  RH  058%=      5-min Rain = 0
KBY1 140307Z 09009KT 27/18 A301 RMK A01 T02720182  RH  058%=      5-min Rain = 0
KBY1 140308Z 09009KT 27/18 A301 RMK A01 T02720182  RH  058%=      5-min Rain = 0
KBY1 140309Z 09007KT 27/18 A301 RMK A01 T02720182  RH  058%=      5-min Rain = 0
KBY1 140310Z 10008KT 27/18 A301 RMK A01 T02720183  RH  058%=      5-min Rain = 0
KBY1 140311Z 10009KT 27/18 A301 RMK A01 T02710183  RH  058%=      5-min Rain = 0
KBY1 140312Z 10008KT 27/18 A301 RMK A01 T02710182  RH  058%=      5-min Rain = 0
KBY1 140313Z 09008KT 27/18 A301 RMK A01 T02710183  RH  059%=      5-min Rain = 0
KBY1 140314Z 09008KT 27/18 A3011 RMK A01 T02700183  RH  059%=      5-min Rain = 0
KBY1 140315Z 10008KT 27/18 A3011 RMK A01 T02700183  RH  059%=      5-min Rain = 0
KBY1 140316Z 10007KT 27/18 A3011 RMK A01 T02700183  RH  059%=      5-min Rain = 0
KBY1 140317Z 09006KT 27/18 A3011 RMK A01 T02690183  RH  059%=      5-min Rain = 0
KBY1 140318Z 10007KT 27/18 A3011 RMK A01 T02680184  RH  060%=      5-min Rain = 0
KBY1 140319Z 09007KT 27/18 A3011 RMK A01 T02670184  RH  060%=      5-min Rain = 0
KBY1 140320Z 10007KT 27/18 A3011 RMK A01 T02660184  RH  061%=      5-min Rain = 0
KBY1 140321Z 10007KT 27/18 A3011 RMK A01 T02650184  RH  061%=      5-min Rain = 0
KBY1 140322Z 10007KT 27/18 A3011 RMK A01 T02650184  RH  061%=      5-min Rain = 0
KBY1 140323Z 10008KT 27/18 A3011 RMK A01 T02650184  RH  061%=      5-min Rain = 0
KBY1 140324Z 10008KT 27/18 A3011 RMK A01 T02650183  RH  061%=      5-min Rain = 0
KBY1 140325Z 11007KT 27/18 A3011 RMK A01 T02650183  RH  061%=      5-min Rain = 0
KBY1 140326Z 11008KT 27/18 A3011 RMK A01 T02650184  RH  061%=      5-min Rain = 0
KBY1 140327Z 11008KT 27/18 A3011 RMK A01 T02650183  RH  061%=      5-min Rain = 0
KBY1 140328Z 11007KT 27/18 A3011 RMK A01 T02650183  RH  061%=      5-min Rain = 0
KBY1 140329Z 12006KT 27/18 A3011 RMK A01 T02650184  RH  061%=      5-min Rain = 0
KBY1 140330Z 12007KT 26/18 A3011 RMK A01 T02640184  RH  061%=      5-min Rain = 0
KBY1 140331Z 12007KT 26/18 A3011 RMK A01 T02640184  RH  061%=      5-min Rain = 0
KBY1 140332Z 12008KT 26/18 A3011 RMK A01 T02640184  RH  062%=      5-min Rain = 0
KBY1 140333Z 12009KT 26/18 A3011 RMK A01 T02630183  RH  061%=      5-min Rain = 0
KBY1 140334Z 12008KT 26/18 A3011 RMK A01 T02630183  RH  061%=      5-min Rain = 0
KBY1 140335Z 11007KT 26/18 A3011 RMK A01 T02640184  RH  062%=      5-min Rain = 0
KBY1 140336Z 11007KT 26/19 A3011 RMK A01 T02630185  RH  062%=      5-min Rain = 0
KBY1 140337Z 12008KT 26/18 A3011 RMK A01 T02620184  RH  062%=      5-min Rain = 0
KBY1 140338Z 12007KT 26/18 A3011 RMK A01 T02620184  RH  062%=      5-min Rain = 0
KBY1 140339Z 11007KT 26/18 A3011 RMK A01 T02620184  RH  062%=      5-min Rain = 0
KBY1 140340Z 11007KT 26/18 A3011 RMK A01 T02610184  RH  063%=      5-min Rain = 0
KBY1 140341Z 11007KT 26/19 A3012 RMK A01 T02610185  RH  063%=      5-min Rain = 0
KBY1 140342Z 11007KT 26/19 A3012 RMK A01 T02610185  RH  063%=      5-min Rain = 0
KBY1 140343Z 11006KT 26/19 A3012 RMK A01 T02600185  RH  063%=      5-min Rain = 0
KBY1 140344Z 11006KT 26/19 A3012 RMK A01 T02600185  RH  064%=      5-min Rain = 0
KBY1 140345Z 11006KT 26/19 A3012 RMK A01 T02580185  RH  064%=      5-min Rain = 0
KBY1 140346Z 11006KT 26/19 A3012 RMK A01 T02570185  RH  064%=      5-min Rain = 0
KBY1 140347Z 10006KT 26/19 A3012 RMK A01 T02570185  RH  065%=      5-min Rain = 0
KBY1 140348Z 10006KT 26/19 A3012 RMK A01 T02560186  RH  065%=      5-min Rain = 0
KBY1 140349Z 10005KT 26/19 A3012 RMK A01 T02550186  RH  065%=      5-min Rain = 0
KBY1 140350Z 10005KT 26/19 A3012 RMK A01 T02550187  RH  066%=      5-min Rain = 0
KBY1 140351Z 10005KT 25/19 A3013 RMK A01 T02540186  RH  066%=      5-min Rain = 0
KBY1 140352Z 10006KT 25/19 A3013 RMK A01 T02530186  RH  067%=      5-min Rain = 0
KBY1 140353Z 09006KT 25/19 A3013 RMK A01 T02520187  RH  067%=      5-min Rain = 0
KBY1 140354Z 09006KT 25/19 A3013 RMK A01 T02520187  RH  067%=      5-min Rain = 0
KBY1 140355Z 09006KT 25/19 A3013 RMK A01 T02510188  RH  068%=      5-min Rain = 0
KBY1 140356Z 09006KT 25/19 A3013 RMK A01 T02500188  RH  068%=      5-min Rain = 0
KBY1 140357Z 09006KT 25/19 A3013 RMK A01 T02490188  RH  069%=      5-min Rain = 0
KBY1 140358Z 09005KT 25/19 A3013 RMK A01 T02490188  RH  069%=      5-min Rain = 0
KBY1 140359Z 09006KT 25/19 A3013 RMK A01 T02490187  RH  068%=      5-min Rain = 0
KBY1 140400Z 10006KT 25/19 A3013 RMK A01 T02490187  RH  068%=      5-min Rain = 0
KBY1 140401Z 10006KT 25/19 A3013 RMK A01 T02500188  RH  068%=      5-min Rain = 0
KBY1 140402Z 10006KT 25/19 A3013 RMK A01 T02510187  RH  068%=      5-min Rain = 0
KBY1 140403Z 10005KT 25/19 A3013 RMK A01 T02510188  RH  068%=      5-min Rain = 0
KBY1 140404Z 10005KT 25/19 A3013 RMK A01 T02510188  RH  068%=      5-min Rain = 0
KBY1 140405Z 10005KT 25/19 A3013 RMK A01 T02500189  RH  069%=      5-min Rain = 0
KBY1 140406Z 10004KT 25/19 A3013 RMK A01 T02490189  RH  069%=      5-min Rain = 0
KBY1 140407Z 10005KT 25/19 A3013 RMK A01 T02490188  RH  069%=      5-min Rain = 0
KBY1 140408Z 10005KT 25/19 A3013 RMK A01 T02480189  RH  070%=      5-min Rain = 0
KBY1 140409Z 10005KT 25/19 A3013 RMK A01 T02470189  RH  070%=      5-min Rain = 0
KBY1 140410Z 10004KT 25/19 A3013 RMK A01 T02470189  RH  070%=      5-min Rain = 0
KBY1 140411Z 10004KT 25/19 A3013 RMK A01 T02460190  RH  071%=      5-min Rain = 0
KBY1 140412Z 10005KT 25/19 A3013 RMK A01 T02460190  RH  071%=      5-min Rain = 0
KBY1 140413Z 10005KT 25/19 A3013 RMK A01 T02460189  RH  071%=      5-min Rain = 0
KBY1 140414Z 10004KT 25/19 A3013 RMK A01 T02460190  RH  071%=      5-min Rain = 0
KBY1 140415Z 10005KT 25/19 A3014 RMK A01 T02460190  RH  071%=      5-min Rain = 0
KBY1 140416Z 10005KT 25/19 A3014 RMK A01 T02450189  RH  071%=      5-min Rain = 0
KBY1 140417Z 10004KT 25/19 A3014 RMK A01 T02450190  RH  071%=      5-min Rain = 0
KBY1 140418Z 10004KT 25/19 A3014 RMK A01 T02450190  RH  071%=      5-min Rain = 0
KBY1 140419Z 10005KT 25/19 A3014 RMK A01 T02450189  RH  071%=      5-min Rain = 0
KBY1 140420Z 10005KT 25/19 A3014 RMK A01 T02450189  RH  071%=      5-min Rain = 0
KBY1 140421Z 10005KT 25/19 A3014 RMK A01 T02450190  RH  071%=      5-min Rain = 0
KBY1 140422Z 10005KT 25/19 A3014 RMK A01 T02450190  RH  071%=      5-min Rain = 0
KBY1 140423Z 10005KT 25/19 A3014 RMK A01 T02450189  RH  071%=      5-min Rain = 0
KBY1 140424Z 10004KT 25/19 A3014 RMK A01 T02450190  RH  071%=      5-min Rain = 0
KBY1 140425Z 11004KT 25/19 A3014 RMK A01 T02450190  RH  072%=      5-min Rain = 0
KBY1 140426Z 11005KT 25/19 A3014 RMK A01 T02450190  RH  072%=      5-min Rain = 0
KBY1 140427Z 11004KT 25/19 A3014 RMK A01 T02450190  RH  071%=      5-min Rain = 0
KBY1 140428Z 12004KT 25/19 A3014 RMK A01 T02450190  RH  071%=      5-min Rain = 0
KBY1 140429Z 12004KT 25/19 A3014 RMK A01 T02450190  RH  072%=      5-min Rain = 0
KBY1 140430Z 12004KT 24/19 A3014 RMK A01 T02440190  RH  072%=      5-min Rain = 0
KBY1 140431Z 12005KT 24/19 A3014 RMK A01 T02440190  RH  072%=      5-min Rain = 0
KBY1 140432Z 12004KT 24/19 A3015 RMK A01 T02440190  RH  072%=      5-min Rain = 0
KBY1 140433Z 12004KT 24/19 A3015 RMK A01 T02430190  RH  072%=      5-min Rain = 0
KBY1 140434Z 11004KT 24/19 A3015 RMK A01 T02430190  RH  072%=      5-min Rain = 0
KBY1 140435Z 11003KT 24/19 A3015 RMK A01 T02430190  RH  072%=      5-min Rain = 0
KBY1 140436Z 12005KT 24/19 A3015 RMK A01 T02420190  RH  073%=      5-min Rain = 0
KBY1 140437Z 11005KT 24/19 A3015 RMK A01 T02410190  RH  073%=      5-min Rain = 0
KBY1 140438Z 11004KT 24/19 A3015 RMK A01 T02420190  RH  073%=      5-min Rain = 0
KBY1 140439Z 11004KT 24/19 A3015 RMK A01 T02410190  RH  073%=      5-min Rain = 0
KBY1 140440Z 11005KT 24/19 A3015 RMK A01 T02410190  RH  073%=      5-min Rain = 0
KBY1 140441Z 10005KT 24/19 A3015 RMK A01 T02400190  RH  073%=      5-min Rain = 0
KBY1 140442Z 10006KT 24/19 A3015 RMK A01 T02400190  RH  073%=      5-min Rain = 0
KBY1 140443Z 09005KT 24/19 A3015 RMK A01 T02400190  RH  074%=      5-min Rain = 0
KBY1 140444Z 10004KT 24/19 A3015 RMK A01 T02390190  RH  074%=      5-min Rain = 0
KBY1 140445Z 10004KT 24/19 A3015 RMK A01 T02380190  RH  074%=      5-min Rain = 0
KBY1 140446Z 10004KT 24/19 A3015 RMK A01 T02380190  RH  074%=      5-min Rain = 0
KBY1 140447Z 09004KT 24/19 A3015 RMK A01 T02380190  RH  075%=      5-min Rain = 0
KBY1 140448Z 09003KT 24/19 A3015 RMK A01 T02370190  RH  074%=      5-min Rain = 0
KBY1 140449Z 09004KT 24/19 A3015 RMK A01 T02370190  RH  075%=      5-min Rain = 0
KBY1 140450Z 10005KT 24/19 A3015 RMK A01 T02370189  RH  075%=      5-min Rain = 0
KBY1 140451Z 10005KT 24/19 A3015 RMK A01 T02370189  RH  075%=      5-min Rain = 0
KBY1 140452Z 11004KT 24/19 A3015 RMK A01 T02370189  RH  074%=      5-min Rain = 0
KBY1 140453Z 10004KT 24/19 A3015 RMK A01 T02380190  RH  074%=      5-min Rain = 0
KBY1 140454Z 10005KT 24/19 A3016 RMK A01 T02380190  RH  074%=      5-min Rain = 0
KBY1 140455Z 10004KT 24/19 A3016 RMK A01 T02380189  RH  074%=      5-min Rain = 0
KBY1 140456Z 10004KT 24/19 A3016 RMK A01 T02380190  RH  074%=      5-min Rain = 0
KBY1 140457Z 10004KT 24/19 A3016 RMK A01 T02380190  RH  075%=      5-min Rain = 0
KBY1 140458Z 10004KT 24/19 A3016 RMK A01 T02370191  RH  075%=      5-min Rain = 0
KBY1 140459Z 11003KT 24/19 A3016 RMK A01 T02370191  RH  075%=      5-min Rain = 0

Page generated in 0.1418 seconds.